NOAA Web Site Link Tides and Currents Home Page Transparent placeholder image

PORTS® Data Listing: 8452660 Newport, RI

CO-OPS RAW PORTS DATA

************************      PRELIMINARY DATA      ************************** 

     THIS RAW DATA HAS NOT BEEN SUBJECT TO THE NATIONAL OCEAN SERVICE'S        
     QUALITY CONTROL OR QUALITY ASSURANCE PROCEDURES AND DOES NOT MEET         
     THE CRITERIA AND STANDARDS OF OFFICIAL NATIONAL OCEAN SERVICE             
     DATA.  IT IS RELEASED FOR LIMITED PUBLIC USE AS PRELIMINARY DATA TO       
     BE USED ONLY WITH APPROPRIATE CAUTION.                                    

************************      PRELIMINARY DATA      ************************** 


       CD   -   Calendar date
       T    -   Time
       TZ   -   Timezone
       PW   -   Predicted water level (feet above MLLW)
       OW   -   Observed water level (feet above MLLW)
       WS   -   Wind speed (knots)
       WD   -   Wind direction (degrees true)
       WG   -   Wind gust (knots)
       AT   -   Air temperature (degrees farenheit)
       WT   -   Water temperature (degrees farenheit)
       AP   -   Air pressure (millibars)
       SA   -   Salinty (PSU - Practical Salinity Units)
       SG   -   Specific gravity
       RH   -   Relative humidity
       AG   -   Air gap (feet)
       VI   -   Visibility (nautical miles)

       ** NOTE **
       A variable that has its data fields filled with "9"s, indicates that
       data was not collected for that sample period.
       **********


STATION NAME: Newport (8452660)
****************************************************************************************************
    CD       T    TZ    PW     OW    WS   WD   WG    AT    WT    AP    SA    SG     RH    AG   VI
****************************************************************************************************
2019/08/19 03:06 EDT    0.53   1.16    9  197   13  73.2  67.5 1014.5 29.3  1.021 -99.9 -99.99 -9.99
2019/08/19 03:12 EDT    0.48   1.16   10  201   11  73.2  67.5 1014.6 29.3  1.021 -99.9 -99.99 -9.99
2019/08/19 03:18 EDT    0.43   1.04    8  199   12  73.0  67.5 1014.6 29.2  1.021 -99.9 -99.99 -9.99
2019/08/19 03:24 EDT    0.39   1.03    9  205   11  72.9  67.3 1014.6 29.2  1.021 -99.9 -99.99 -9.99
2019/08/19 03:30 EDT    0.36   1.05    7  216    9  72.5  67.3 1014.7 29.4  1.022 -99.9 -99.99 -9.99
2019/08/19 03:36 EDT    0.33   1.00    6  222   10  72.1  67.3 1014.7 29.4  1.022 -99.9 -99.99 -9.99
2019/08/19 03:42 EDT    0.30   0.97    5  212    8  72.0  67.3 1014.7 29.3  1.021 -99.9 -99.99 -9.99
2019/08/19 03:48 EDT    0.28   0.94    7  209    9  71.8  67.3 1014.7 29.4  1.021 -99.9 -99.99 -9.99
2019/08/19 03:54 EDT    0.26   0.96    7  206    8  72.0  67.3 1014.7 29.4  1.022 -99.9 -99.99 -9.99
2019/08/19 04:00 EDT    0.25   0.94    6  202    8  72.0  67.3 1014.6 29.4  1.022 -99.9 -99.99 -9.99
2019/08/19 04:06 EDT    0.24   0.91    4  209    7  72.1  67.3 1014.7 29.4  1.022 -99.9 -99.99 -9.99
2019/08/19 04:12 EDT    0.24   0.94    4  211    5  72.0  67.3 1014.6 29.4  1.022 -99.9 -99.99 -9.99
2019/08/19 04:18 EDT    0.24   0.93    4  223    6  72.7  67.3 1014.6 29.4  1.021 -99.9 -99.99 -9.99
2019/08/19 04:24 EDT    0.25   1.01    4  201    5  72.1  67.3 1014.6 29.3  1.021 -99.9 -99.99 -9.99
2019/08/19 04:30 EDT    0.26   0.95    4  197    5  71.8  67.3 1014.7 29.4  1.021 -99.9 -99.99 -9.99
2019/08/19 04:36 EDT    0.27   0.99    4  194    5  72.1  67.3 1014.7 29.3  1.021 -99.9 -99.99 -9.99
2019/08/19 04:42 EDT    0.29   0.99    4  194    5  72.1  67.3 1014.8 29.4  1.021 -99.9 -99.99 -9.99
2019/08/19 04:48 EDT    0.31   0.95    3  204    5  72.1  67.3 1015.0 29.4  1.021 -99.9 -99.99 -9.99
2019/08/19 04:54 EDT    0.33   1.01    1  223    3  72.3  67.1 1015.1 29.5  1.022 -99.9 -99.99 -9.99
2019/08/19 05:00 EDT    0.36   0.98    2  237    4  72.7  67.3 1015.2 29.3  1.021 -99.9 -99.99 -9.99
2019/08/19 05:06 EDT    0.39   1.04    4  242    7  73.0  67.1 1015.3 29.4  1.022 -99.9 -99.99 -9.99
2019/08/19 05:12 EDT    0.42   1.05    4  228    6  72.9  67.3 1015.2 29.5  1.022 -99.9 -99.99 -9.99
2019/08/19 05:18 EDT    0.46   1.14    4  227    6  72.7  67.3 1015.3 29.4  1.022 -99.9 -99.99 -9.99
2019/08/19 05:24 EDT    0.49   1.15    5  222    5  72.9  67.3 1015.2 29.6  1.022 -99.9 -99.99 -9.99
2019/08/19 05:30 EDT    0.53   1.13    4  227    5  72.5  67.3 1015.3 29.6  1.022 -99.9 -99.99 -9.99
2019/08/19 05:36 EDT    0.57   1.21    4  218    5  72.3  67.1 1015.4 29.6  1.022 -99.9 -99.99 -9.99
2019/08/19 05:42 EDT    0.61   1.17    3  222    5  72.3  67.3 1015.5 29.6  1.022 -99.9 -99.99 -9.99
2019/08/19 05:48 EDT    0.66   1.30    3  217    4  71.8  67.3 1015.5 -9.9 -9.999 -99.9 -99.99 -9.99
2019/08/19 05:54 EDT    0.71   1.29    3  210    3  71.4  67.1 1015.6 29.7  1.022 -99.9 -99.99 -9.99
2019/08/19 06:00 EDT    0.75   1.31    3  205    4  71.2  67.1 1015.7 29.8  1.022 -99.9 -99.99 -9.99
2019/08/19 06:06 EDT    0.80   1.37    2  216    4  71.1  66.9 1015.7 29.9  1.022 -99.9 -99.99 -9.99
2019/08/19 06:12 EDT    0.85   1.33    4  183    4  71.1  67.1 1015.7 29.8  1.022 -99.9 -99.99 -9.99
2019/08/19 06:18 EDT    0.90   1.43    4  182    5  71.4  67.1 1015.9 29.9  1.022 -99.9 -99.99 -9.99
2019/08/19 06:24 EDT    0.96   1.41    4  178    5  71.8  66.7 1016.0 29.9  1.022 -99.9 -99.99 -9.99
2019/08/19 06:30 EDT    1.01   1.48    3  169    4  72.0  66.9 1016.0 29.9  1.022 -99.9 -99.99 -9.99
2019/08/19 06:36 EDT    1.07   1.50    4  158    4  72.1  66.7 1016.1 29.9  1.022 -99.9 -99.99 -9.99
2019/08/19 06:42 EDT    1.13   1.58    3  161    5  72.3  66.9 1016.0 29.8  1.022 -99.9 -99.99 -9.99
2019/08/19 06:48 EDT    1.18   1.72    4  180    4  72.3  66.7 1016.0 29.9  1.022 -99.9 -99.99 -9.99
2019/08/19 06:54 EDT    1.24   1.64    3  184    4  72.0  67.1 1016.1 29.8  1.022 -99.9 -99.99 -9.99
2019/08/19 07:00 EDT    1.30   1.74    4  176    4  72.0  66.9 1016.1 29.9  1.022 -99.9 -99.99 -9.99
2019/08/19 07:06 EDT    1.37   1.85    4  182    5  72.0  66.9 1016.1 29.9  1.022 -99.9 -99.99 -9.99
2019/08/19 07:12 EDT    1.43   1.90    4  194    5  71.8  66.9 1016.1 29.9  1.022 -99.9 -99.99 -9.99
2019/08/19 07:18 EDT    1.49   1.99    3  202    4  71.6  66.9 1016.1 29.9  1.022 -99.9 -99.99 -9.99
2019/08/19 07:24 EDT    1.56   2.04    3  195    3  71.6  66.9 1016.1 29.9  1.022 -99.9 -99.99 -9.99
2019/08/19 07:30 EDT    1.63   2.11    3  198    4  71.6  66.9 1016.1 29.9  1.022 -99.9 -99.99 -9.99
2019/08/19 07:36 EDT    1.69   2.15    3  198    4  71.6  66.9 1016.1 29.9  1.022 -99.9 -99.99 -9.99
2019/08/19 07:42 EDT    1.76   2.29    4  201    4  71.8  66.7 1016.1 29.9  1.022 -99.9 -99.99 -9.99
2019/08/19 07:48 EDT    1.83   2.31    4  226    6  71.8  66.9 1016.1 29.9  1.022 -99.9 -99.99 -9.99
2019/08/19 07:54 EDT    1.90   2.36    3  229    5  71.6  66.9 1016.1 29.9  1.022 -99.9 -99.99 -9.99
2019/08/19 08:00 EDT    1.97   2.53    3  220    4  72.0  66.9 1016.1 29.9  1.022 -99.9 -99.99 -9.99
2019/08/19 08:06 EDT    2.04   2.51    3  200    4  71.8  66.7 1016.0 29.9  1.022 -99.9 -99.99 -9.99
2019/08/19 08:12 EDT    2.11   2.58    4  187    4  71.8  66.9 1015.9 29.9  1.022 -99.9 -99.99 -9.99
2019/08/19 08:18 EDT    2.18   2.73    5  189    6  71.6  66.7 1015.9 29.9  1.022 -99.9 -99.99 -9.99
2019/08/19 08:24 EDT    2.25   2.77    5  196    6  72.3  66.7 1015.8 29.9  1.022 -99.9 -99.99 -9.99
2019/08/19 08:30 EDT    2.32   2.85    4  210    5  72.5  66.7 1015.7 29.9  1.022 -99.9 -99.99 -9.99
2019/08/19 08:36 EDT    2.39   2.96    5  206    5  72.5  66.6 1015.6 29.9  1.022 -99.9 -99.99 -9.99
2019/08/19 08:42 EDT    2.46   2.99    6  198    6  72.3  66.7 1015.7 29.9  1.022 -99.9 -99.99 -9.99
2019/08/19 08:48 EDT    2.53   3.10    7  197    8  72.7  66.7 1015.5 29.9  1.022 -99.9 -99.99 -9.99
2019/08/19 08:54 EDT    2.60   3.15    6  194    8  73.4  66.6 1015.5 -9.9 -9.999 -99.9 -99.99 -9.99
2019/08/19 09:00 EDT    2.66   3.22    6  178    7  73.9  66.6 1015.4 29.9  1.022 -99.9 -99.99 -9.99
2019/08/19 09:06 EDT    2.73   3.33    9  179    9  74.7  66.6 1015.3 30.0  1.022 -99.9 -99.99 -9.99
2019/08/19 09:12 EDT    2.79   3.36    8  179   10  75.2  66.6 1015.3 -9.9 -9.999 -99.9 -99.99 -9.99
2019/08/19 09:18 EDT    2.86   3.47    8  194    9  75.2  66.4 1015.4 30.0  1.022 -99.9 -99.99 -9.99
2019/08/19 09:24 EDT    2.92   3.53    7  198   10  75.0  66.4 1015.5 29.9  1.022 -99.9 -99.99 -9.99
2019/08/19 09:30 EDT    2.98   3.61    7  207    9  75.2  66.4 1015.5 30.0  1.022 -99.9 -99.99 -9.99
2019/08/19 09:36 EDT    3.03   3.66    6  210    9  74.8  66.4 1015.6 -9.9 -9.999 -99.9 -99.99 -9.99
2019/08/19 09:42 EDT    3.09   3.74    7  207    8  74.5  66.4 1015.7 30.0  1.022 -99.9 -99.99 -9.99
2019/08/19 09:48 EDT    3.14   3.82    7  203    9  74.7  66.6 1015.6 29.9  1.022 -99.9 -99.99 -9.99
2019/08/19 09:54 EDT    3.19   3.83    7  204    9  75.0  66.4 1015.6 30.0  1.022 -99.9 -99.99 -9.99
2019/08/19 10:00 EDT    3.23   3.93    7  193    9  75.6  66.4 1015.6 30.0  1.022 -99.9 -99.99 -9.99
2019/08/19 10:06 EDT    3.27   3.97    7  198    8  75.9  66.4 1015.6 30.0  1.022 -99.9 -99.99 -9.99
2019/08/19 10:12 EDT    3.31   3.94    7  198    8  76.1  66.4 1015.5 30.0  1.022 -99.9 -99.99 -9.99
2019/08/19 10:18 EDT    3.34   4.00    6  203    8  76.1  66.4 1015.6 30.0  1.022 -99.9 -99.99 -9.99
2019/08/19 10:24 EDT    3.37   4.06    9  208   10  75.7  66.2 1015.6 30.0  1.022 -99.9 -99.99 -9.99
2019/08/19 10:30 EDT    3.40   4.10    8  204   11  75.9  66.2 1015.7 30.0  1.022 -99.9 -99.99 -9.99
2019/08/19 10:36 EDT    3.42   4.16    7  198    9  76.6  66.2 1015.7 30.0  1.022 -99.9 -99.99 -9.99
2019/08/19 10:42 EDT    3.44   4.16    8  192    9  76.8  66.2 1015.7 30.0  1.022 -99.9 -99.99 -9.99
2019/08/19 10:48 EDT    3.45   4.16    7  175    9  77.5  66.2 1015.7 30.0  1.022 -99.9 -99.99 -9.99
2019/08/19 10:54 EDT    3.46   4.26    8  180    9  77.7  66.2 1015.6 30.0  1.022 -99.9 -99.99 -9.99
2019/08/19 11:00 EDT    3.46   4.19    8  170   10  77.7  66.4 1015.6 30.0  1.022 -99.9 -99.99 -9.99
2019/08/19 11:06 EDT    3.46   4.15    7  179    9  77.5  66.4 1015.7 30.0  1.022 -99.9 -99.99 -9.99
2019/08/19 11:12 EDT    3.45   4.21    7  180    8  77.4  66.2 1015.7 30.0  1.022 -99.9 -99.99 -9.99
2019/08/19 11:18 EDT    3.44   4.20    7  190    9  76.6  66.2 1015.8 -9.9 -9.999 -99.9 -99.99 -9.99
2019/08/19 11:24 EDT    3.43   4.18    8  195    9  76.5  66.2 1015.8 30.1  1.022 -99.9 -99.99 -9.99
2019/08/19 11:30 EDT    3.41   4.18   10  199   11  76.5  66.6 1015.8 30.0  1.022 -99.9 -99.99 -9.99
2019/08/19 11:36 EDT    3.38   4.14    9  197   11  76.3  66.7 1015.8 30.0  1.022 -99.9 -99.99 -9.99
2019/08/19 11:42 EDT    3.35   4.11    9  199   11  76.1  66.9 1015.9 30.0  1.022 -99.9 -99.99 -9.99
2019/08/19 11:48 EDT    3.32   4.07    8  200   11  75.7  67.1 1015.8 29.9  1.022 -99.9 -99.99 -9.99
2019/08/19 11:54 EDT    3.28   4.03   10  200   11  75.7  67.1 1015.8 30.0  1.022 -99.9 -99.99 -9.99
2019/08/19 12:00 EDT    3.24   3.99   10  197   12  75.9  67.1 1015.8 30.0  1.022 -99.9 -99.99 -9.99
2019/08/19 12:06 EDT    3.20   3.92   10  202   12  75.7  67.1 1015.8 29.9  1.022 -99.9 -99.99 -9.99
2019/08/19 12:12 EDT    3.15   3.90   10  203   12  75.7  66.9 1015.7 30.0  1.022 -99.9 -99.99 -9.99
2019/08/19 12:18 EDT    3.09   3.86   10  203   13  75.0  67.1 1015.7 29.9  1.022 -99.9 -99.99 -9.99
2019/08/19 12:24 EDT    3.03   3.79   11  196   13  75.2  67.1 1015.5 29.9  1.022 -99.9 -99.99 -9.99
2019/08/19 12:30 EDT    2.97   3.75   10  187   12  75.7  67.1 1015.5 30.0  1.022 -99.9 -99.99 -9.99
2019/08/19 12:36 EDT    2.91   3.66    8  194   11  75.9  67.1 1015.5 30.0  1.022 -99.9 -99.99 -9.99
2019/08/19 12:42 EDT    2.84   3.56    9  195   10  75.7  67.3 1015.5 30.0  1.022 -99.9 -99.99 -9.99
2019/08/19 12:48 EDT    2.77   3.48   12  190   13  75.6  67.5 1015.4 29.9  1.022 -99.9 -99.99 -9.99
2019/08/19 12:54 EDT    2.70   3.42   10  202   13  75.4  67.3 1015.5 30.0  1.022 -99.9 -99.99 -9.99
2019/08/19 13:00 EDT    2.62   3.33   11  205   13  74.8  67.6 1015.4 30.0  1.022 -99.9 -99.99 -9.99
2019/08/19 13:06 EDT    2.55   3.24   10  205   12  75.2  67.6 1015.4 29.9  1.022 -99.9 -99.99 -9.99
2019/08/19 13:12 EDT    2.47   3.17    9  203   12  75.4  67.8 1015.4 30.0  1.022 -99.9 -99.99 -9.99
2019/08/19 13:18 EDT    2.38   3.06    9  210   11  75.2  67.6 1015.4 29.9  1.022 -99.9 -99.99 -9.99
2019/08/19 13:24 EDT    2.30   2.95    9  203   11  74.8  67.5 1015.4 30.0  1.022 -99.9 -99.99 -9.99
2019/08/19 13:30 EDT    2.21   2.84    9  195   11  75.4  67.8 1015.3 29.9  1.022 -99.9 -99.99 -9.99
2019/08/19 13:36 EDT    2.13   2.73    9  200   11  75.7  68.0 1015.2 29.9  1.022 -99.9 -99.99 -9.99
2019/08/19 13:42 EDT    2.04   2.61   10  202   11  75.7  68.0 1015.2 30.0  1.022 -99.9 -99.99 -9.99
2019/08/19 13:48 EDT    1.95   2.53   10  207   12  75.4  68.0 1015.2 29.9  1.022 -99.9 -99.99 -9.99
2019/08/19 13:54 EDT    1.87   2.43    9  213   11  75.0  68.4 1015.3 29.9  1.022 -99.9 -99.99 -9.99
2019/08/19 14:00 EDT    1.78   2.36    9  211   12  74.8  68.2 1015.3 29.9  1.022 -99.9 -99.99 -9.99
2019/08/19 14:06 EDT    1.69   2.25   11  209   13  74.5  68.0 1015.3 29.9  1.022 -99.9 -99.99 -9.99
2019/08/19 14:12 EDT    1.60   2.13   11  213   14  74.7  68.5 1015.2 29.9  1.022 -99.9 -99.99 -9.99
2019/08/19 14:18 EDT    1.52   2.05   10  213   12  75.0  68.2 1015.1 29.9  1.022 -99.9 -99.99 -9.99
2019/08/19 14:24 EDT    1.43   1.91   12  206   14  75.9  68.4 1014.8 29.9  1.022 -99.9 -99.99 -9.99
2019/08/19 14:30 EDT    1.35   1.84   12  210   14  76.5  68.2 1014.7 29.9  1.022 -99.9 -99.99 -9.99
2019/08/19 14:36 EDT    1.27   1.76   13  215   14  76.1  68.4 1014.6 29.9  1.022 -99.9 -99.99 -9.99
2019/08/19 14:42 EDT    1.19   1.64   12  209   15  75.6  68.5 1014.4 29.8  1.022 -99.9 -99.99 -9.99
2019/08/19 14:48 EDT    1.12   1.58   13  204   15  75.9  68.4 1014.3 29.9  1.022 -99.9 -99.99 -9.99
2019/08/19 14:54 EDT    1.05   1.55   13  207   16  76.5  68.4 1014.3 29.9  1.022 -99.9 -99.99 -9.99
2019/08/19 15:00 EDT    0.98   1.39   14  208   16  76.3  68.4 1014.3 29.9  1.022 -99.9 -99.99 -9.99
2019/08/19 15:06 EDT    0.91   1.37   14  205   17  75.9  68.5 1014.1 29.9  1.022 -99.9 -99.99 -9.99
2019/08/19 15:12 EDT    0.85   1.31   15  206   16  75.9  68.5 1014.1 29.9  1.022 -99.9 -99.99 -9.99
2019/08/19 15:18 EDT    0.79   1.20   15  207   18  76.1  68.5 1014.1 29.9  1.022 -99.9 -99.99 -9.99
2019/08/19 15:24 EDT    0.74   1.18   15  206   17  76.3  68.7 1014.0 29.9  1.022 -99.9 -99.99 -9.99
2019/08/19 15:30 EDT    0.69   1.14   14  211   17  76.3  68.5 1014.1 29.9  1.022 -99.9 -99.99 -9.99
2019/08/19 15:36 EDT    0.64   1.05   14  210   17  75.9  68.9 1014.0 29.8  1.022 -99.9 -99.99 -9.99
2019/08/19 15:42 EDT    0.60   1.05   15  209   18  76.1  68.9 1014.0 29.9  1.022 -99.9 -99.99 -9.99
2019/08/19 15:48 EDT    0.57   1.03   15  208   18  76.3  68.7 1014.0 29.9  1.022 -99.9 -99.99 -9.99
2019/08/19 15:54 EDT    0.54   0.92   15  209   18  76.3  68.9 1014.0 29.8  1.022 -99.9 -99.99 -9.99
2019/08/19 16:00 EDT    0.51   0.98   14  209   17  76.3  69.1 1014.0 29.8  1.022 -99.9 -99.99 -9.99
2019/08/19 16:06 EDT    0.49   0.93   14  208   17  76.3  68.9 1014.0 29.8  1.022 -99.9 -99.99 -9.99
2019/08/19 16:12 EDT    0.48   0.90   14  209   17  76.3  69.3 1014.0 29.9  1.022 -99.9 -99.99 -9.99
2019/08/19 16:18 EDT    0.46   0.93   13  210   17  76.3  69.1 1014.0 29.9  1.022 -99.9 -99.99 -9.99
2019/08/19 16:24 EDT    0.46   0.90   15  208   17  76.3  69.3 1013.9 29.8  1.022 -99.9 -99.99 -9.99
2019/08/19 16:30 EDT    0.45   0.89   14  208   17  76.3  69.4 1013.9 29.9  1.022 -99.9 -99.99 -9.99
2019/08/19 16:36 EDT    0.45   0.92   13  209   16  76.3  69.1 1013.9 29.9  1.022 -99.9 -99.99 -9.99
2019/08/19 16:42 EDT    0.46   0.92   14  208   15  76.3  69.1 1013.8 29.9  1.022 -99.9 -99.99 -9.99
2019/08/19 16:48 EDT    0.47   1.00   14  207   17  76.3  69.3 1013.6 29.9  1.022 -99.9 -99.99 -9.99
2019/08/19 16:54 EDT    0.48   1.01   14  206   17  76.3  69.1 1013.5 29.9  1.022 -99.9 -99.99 -9.99
2019/08/19 17:00 EDT    0.49   1.07   13  204   15  76.3  69.3 1013.5 29.9  1.022 -99.9 -99.99 -9.99
2019/08/19 17:06 EDT    0.51   1.10   12  206   15  76.3  69.4 1013.4 29.9  1.022 -99.9 -99.99 -9.99
2019/08/19 17:12 EDT    0.53   1.16   11  205   14  76.1  69.3 1013.4 29.9  1.022 -99.9 -99.99 -9.99
2019/08/19 17:18 EDT    0.55   1.16   12  207   14  76.1  69.4 1013.5 29.9  1.022 -99.9 -99.99 -9.99
2019/08/19 17:24 EDT    0.58   1.27   11  210   14  75.7  69.4 1013.5 29.9  1.022 -99.9 -99.99 -9.99
2019/08/19 17:30 EDT    0.61   1.23   11  218   13  75.0  69.3 1013.7 29.9  1.022 -99.9 -99.99 -9.99
2019/08/19 17:36 EDT    0.64   1.22   11  213   13  74.5  69.4 1013.9 29.9  1.022 -99.9 -99.99 -9.99
2019/08/19 17:42 EDT    0.67   1.38    8  222   12  74.3  69.4 1014.1 29.9  1.022 -99.9 -99.99 -9.99
2019/08/19 17:48 EDT    0.70   1.36    5  232   10  74.3  69.1 1014.5 29.9  1.022 -99.9 -99.99 -9.99
2019/08/19 17:54 EDT    0.74   1.44    3  250    6  74.8  69.3 1014.7 29.8  1.022 -99.9 -99.99 -9.99
2019/08/19 18:00 EDT    0.78   1.46    1  197    4  75.4  68.9 1014.6 29.9  1.022 -99.9 -99.99 -9.99
2019/08/19 18:06 EDT    0.82   1.45    5  187    7  75.7  69.3 1014.6 29.9  1.022 -99.9 -99.99 -9.99
2019/08/19 18:12 EDT    0.86   1.55    5  183    7  75.6  69.1 1014.9 29.9  1.022 -99.9 -99.99 -9.99
2019/08/19 18:18 EDT    0.90   1.62    3  192    6  75.7  69.1 1015.0 29.9  1.022 -99.9 -99.99 -9.99
2019/08/19 18:24 EDT    0.94   1.61    4  195    4  75.6  69.1 1015.1 29.8  1.022 -99.9 -99.99 -9.99
2019/08/19 18:30 EDT    0.98   1.68    6  225    7  75.7  69.1 1015.2 29.8  1.022 -99.9 -99.99 -9.99
2019/08/19 18:36 EDT    1.03   1.77   12  246   14  77.9  68.7 1015.2 29.9  1.022 -99.9 -99.99 -9.99
2019/08/19 18:42 EDT    1.08   1.76   12  271   15  77.7  68.5 1015.8 29.9  1.022 -99.9 -99.99 -9.99
2019/08/19 18:48 EDT    1.12   1.83   12  339   18  78.8  68.7 1016.3 29.9  1.022 -99.9 -99.99 -9.99
2019/08/19 18:54 EDT    1.17   1.96   14  346   23  76.3  68.7 1016.3 29.9  1.022 -99.9 -99.99 -9.99
2019/08/19 19:00 EDT    1.22   1.92    9    2   18  75.0  68.7 1016.0 29.9  1.022 -99.9 -99.99 -9.99
2019/08/19 19:06 EDT    1.27   2.08    5  335   11  74.3  68.9 1016.0 30.0  1.022 -99.9 -99.99 -9.99
2019/08/19 19:12 EDT    1.32   1.99    8  356   16  73.4  68.9 1015.7 29.9  1.022 -99.9 -99.99 -9.99
2019/08/19 19:18 EDT    1.38   1.97    7  358   11  73.0  68.7 1015.7 29.9  1.022 -99.9 -99.99 -9.99
2019/08/19 19:24 EDT    1.43   2.08    4  324    9  72.7  68.9 1016.2 29.8  1.022 -99.9 -99.99 -9.99
2019/08/19 19:30 EDT    1.49   2.01    7  270   12  72.1  68.4 1016.8 29.9  1.022 -99.9 -99.99 -9.99
2019/08/19 19:36 EDT    1.54   2.12   15  308   16  71.4  68.4 1016.3 29.8  1.022 -99.9 -99.99 -9.99
2019/08/19 19:42 EDT    1.60   2.27    4  309   21  72.1  68.2 1015.6 29.9  1.022 -99.9 -99.99 -9.99
2019/08/19 19:48 EDT    1.66   2.27    3  103    5  72.0  68.4 1015.0 29.9  1.022 -99.9 -99.99 -9.99
2019/08/19 19:54 EDT    1.72   2.37    0  322    6  72.3  68.5 1015.1 29.9  1.022 -99.9 -99.99 -9.99
2019/08/19 20:00 EDT    1.78   2.44    1  120    5  72.0  68.2 1014.9 29.9  1.022 -99.9 -99.99 -9.99
2019/08/19 20:06 EDT    1.84   2.50    4  206    5  71.8  68.2 1014.7 29.9  1.022 -99.9 -99.99 -9.99
2019/08/19 20:12 EDT    1.90   2.43    2  265    5  71.8  68.4 1014.7 29.9  1.022 -99.9 -99.99 -9.99
2019/08/19 20:18 EDT    1.97   2.44    4  203    5  71.2  68.4 1014.5 29.9  1.022 -99.9 -99.99 -9.99
2019/08/19 20:24 EDT    2.03   2.52    4  218    5  71.1  68.5 1014.4 29.9  1.022 -99.9 -99.99 -9.99
2019/08/19 20:30 EDT    2.09   2.50    6  206    7  71.1  68.7 1014.4 29.9  1.022 -99.9 -99.99 -9.99
2019/08/19 20:36 EDT    2.16   2.69    4  199    7  71.1  68.4 1014.4 29.9  1.022 -99.9 -99.99 -9.99
2019/08/19 20:42 EDT    2.22   2.65    2  207    5  71.1  68.4 1014.3 29.9  1.022 -99.9 -99.99 -9.99
2019/08/19 20:48 EDT    2.29   2.72    5  208    5  71.1  68.5 1014.4 29.9  1.022 -99.9 -99.99 -9.99
2019/08/19 20:54 EDT    2.35   2.85    5  197    6  71.1  68.4 1014.5 29.9  1.022 -99.9 -99.99 -9.99
2019/08/19 21:00 EDT    2.42   2.80    5  203    7  70.7  68.4 1014.6 29.9  1.022 -99.9 -99.99 -9.99
2019/08/19 21:06 EDT    2.48   2.81    7  204    9  70.9  68.2 1014.8 30.0  1.022 -99.9 -99.99 -9.99
2019/08/19 21:12 EDT    2.54   2.87    4  201    8  71.1  68.4 1014.8 29.9  1.022 -99.9 -99.99 -9.99
2019/08/19 21:18 EDT    2.61   2.91    5  189    7  71.1  68.4 1014.9 29.9  1.022 -99.9 -99.99 -9.99
2019/08/19 21:24 EDT    2.67   2.85    6  210    9  71.2  68.4 1014.9 29.9  1.022 -99.9 -99.99 -9.99
2019/08/19 21:30 EDT    2.73   2.96    7  214   10  71.4  68.2 1014.9 29.9  1.022 -99.9 -99.99 -9.99
2019/08/19 21:36 EDT    2.78   3.07    7  226    9  71.6  68.4 1015.0 30.0  1.022 -99.9 -99.99 -9.99
2019/08/19 21:42 EDT    2.84   3.01    8  221   10  72.0  68.4 1015.1 29.9  1.022 -99.9 -99.99 -9.99
2019/08/19 21:48 EDT    2.90   3.00    5  230    9  71.4  68.0 1015.1 30.0  1.022 -99.9 -99.99 -9.99
2019/08/19 21:54 EDT    2.95   3.10    5  226    7  71.4  68.0 1015.1 30.0  1.022 -99.9 -99.99 -9.99
2019/08/19 22:00 EDT    3.00   3.17    4  229    6  71.6  68.0 1015.1 30.0  1.022 -99.9 -99.99 -9.99
2019/08/19 22:06 EDT    3.05   3.20    4  244    5  71.4  68.0 1015.2 29.9  1.022 -99.9 -99.99 -9.99
2019/08/19 22:12 EDT    3.09   3.32    3  225    4  71.4  68.0 1015.2 29.9  1.022 -99.9 -99.99 -9.99
2019/08/19 22:18 EDT    3.13   3.33    2  193    3  71.4  67.8 1015.2 30.0  1.022 -99.9 -99.99 -9.99
2019/08/19 22:24 EDT    3.17   3.41    3  169    4  71.4  68.2 1015.2 29.9  1.022 -99.9 -99.99 -9.99
2019/08/19 22:30 EDT    3.20   3.51    3  184    4  71.2  68.2 1015.2 29.9  1.022 -99.9 -99.99 -9.99
2019/08/19 22:36 EDT    3.24   3.48    4  186    4  71.2  68.0 1015.2 29.9  1.022 -99.9 -99.99 -9.99
2019/08/19 22:42 EDT    3.26   3.47    3  212    4  71.4  68.0 1015.2 30.0  1.022 -99.9 -99.99 -9.99
2019/08/19 22:48 EDT    3.29   3.53    3  215    4  71.4  67.8 1015.2 30.0  1.022 -99.9 -99.99 -9.99
2019/08/19 22:54 EDT    3.30   3.63    3  225    4  71.6  67.8 1015.3 30.0  1.022 -99.9 -99.99 -9.99
2019/08/19 23:00 EDT    3.32   3.69    2  211    3  71.8  67.6 1015.3 30.0  1.022 -99.9 -99.99 -9.99
2019/08/19 23:06 EDT    3.33   3.67    2  194    2  71.6  67.5 1015.3 29.9  1.022 -99.9 -99.99 -9.99
2019/08/19 23:12 EDT    3.33   3.78    1  202    3  71.4  67.6 1015.2 29.5  1.022 -99.9 -99.99 -9.99
2019/08/19 23:18 EDT    3.34   3.77    3  219    3  71.6  67.6 1015.2 29.9  1.022 -99.9 -99.99 -9.99
2019/08/19 23:24 EDT    3.33   3.69    3  233    4  72.0  67.5 1015.1 29.9  1.022 -99.9 -99.99 -9.99
2019/08/19 23:30 EDT    3.32   3.74    2  240    4  72.1  67.3 1015.1 30.0  1.022 -99.9 -99.99 -9.99
2019/08/19 23:36 EDT    3.31   3.67    1  235    3  72.0  67.1 1015.2 30.0  1.022 -99.9 -99.99 -9.99
2019/08/19 23:42 EDT    3.29   3.77    1  167    2  71.8  67.1 1015.2 30.0  1.022 -99.9 -99.99 -9.99
2019/08/19 23:48 EDT    3.27   3.81    2  148    2  71.8  66.7 1015.2 30.0  1.022 -99.9 -99.99 -9.99
2019/08/19 23:54 EDT    3.24   3.84    2  128    2  71.8  66.9 1015.2 30.0  1.022 -99.9 -99.99 -9.99
2019/08/20 00:00 EDT    3.21   3.82    3  168    3  71.8  66.4 1015.2 30.1  1.022 -99.9 -99.99 -9.99
2019/08/20 00:06 EDT    3.18   3.83    5  210    5  72.1  66.2 1015.2 30.0  1.022 -99.9 -99.99 -9.99
2019/08/20 00:12 EDT    3.14   3.77    5  214    5  72.1  66.7 1015.2 30.0  1.022 -99.9 -99.99 -9.99
2019/08/20 00:18 EDT    3.09   3.73    5  212    5  72.1  66.4 1015.2 30.1  1.022 -99.9 -99.99 -9.99
2019/08/20 00:24 EDT    3.04   3.71    5  208    5  72.0  66.7 1015.3 30.1  1.022 -99.9 -99.99 -9.99
2019/08/20 00:30 EDT    2.99   3.66    5  212    6  71.6  66.6 1015.3 30.1  1.022 -99.9 -99.99 -9.99
2019/08/20 00:36 EDT    2.94   3.66    5  218    6  71.8  67.1 1015.3 30.1  1.022 -99.9 -99.99 -9.99
2019/08/20 00:42 EDT    2.88   3.58    5  226    6  71.8  67.3 1015.4 29.9  1.022 -99.9 -99.99 -9.99
2019/08/20 00:48 EDT    2.81   3.50    5  216    6  71.8  67.3 1015.4 30.0  1.022 -99.9 -99.99 -9.99
2019/08/20 00:54 EDT    2.75   3.45    4  215    6  71.8  67.6 1015.4 29.9  1.022 -99.9 -99.99 -9.99
2019/08/20 01:00 EDT    2.68   3.45    4  217    5  71.6  67.6 1015.4 30.0  1.022 -99.9 -99.99 -9.99
2019/08/20 01:06 EDT    2.61   3.31    4  217    6  71.6  67.8 1015.4 29.9  1.022 -99.9 -99.99 -9.99
2019/08/20 01:12 EDT    2.53   3.35    4  212    5  71.6  67.8 1015.4 29.9  1.022 -99.9 -99.99 -9.99
2019/08/20 01:18 EDT    2.45   3.26    5  214    6  71.6  68.0 1015.5 29.8  1.022 -99.9 -99.99 -9.99
2019/08/20 01:24 EDT    2.38   3.09    4  213    7  71.8  68.2 1015.5 29.8  1.022 -99.9 -99.99 -9.99
2019/08/20 01:30 EDT    2.29   3.11    3  218    5  71.6  68.2 1015.5 29.7  1.022 -99.9 -99.99 -9.99
2019/08/20 01:36 EDT    2.21   2.92    3  198    4  71.6  68.0 1015.6 29.8  1.022 -99.9 -99.99 -9.99
2019/08/20 01:42 EDT    2.13   2.83    4  208    5  71.4  68.0 1015.6 29.8  1.022 -99.9 -99.99 -9.99
2019/08/20 01:48 EDT    2.04   2.75    4  214    5  71.4  68.2 1015.6 29.8  1.022 -99.9 -99.99 -9.99
2019/08/20 01:54 EDT    1.95   2.63    4  213    5  71.4  68.2 1015.6 29.8  1.022 -99.9 -99.99 -9.99
2019/08/20 02:00 EDT    1.86   2.53    3  221    5  71.4  68.2 1015.6 29.8  1.022 -99.9 -99.99 -9.99
2019/08/20 02:06 EDT    1.78   2.41    2  222    4  71.2  68.2 1015.7 29.8  1.022 -99.9 -99.99 -9.99
2019/08/20 02:12 EDT    1.69   2.25    3  230    3  71.2  68.4 1015.7 29.8  1.022 -99.9 -99.99 -9.99
2019/08/20 02:18 EDT    1.60   2.18    4  224    5  71.2  68.4 1015.8 29.8  1.022 -99.9 -99.99 -9.99
2019/08/20 02:24 EDT    1.51   2.07    3  215    4  71.1  68.4 1015.9 29.8  1.022 -99.9 -99.99 -9.99
2019/08/20 02:30 EDT    1.42   1.92    3  215    4  71.1  68.2 1015.9 29.8  1.022 -99.9 -99.99 -9.99
2019/08/20 02:36 EDT    1.34   1.77    1  226    3  70.9  68.4 1016.0 29.8  1.022 -99.9 -99.99 -9.99
2019/08/20 02:42 EDT    1.25   1.74    2  178    2  70.9  68.2 1016.1 29.8  1.022 -99.9 -99.99 -9.99
2019/08/20 02:48 EDT    1.17   1.63    2  149    3  71.1  68.4 1016.1 29.8  1.022 -99.9 -99.99 -9.99
2019/08/20 02:54 EDT    1.09   1.50    0  140    2  71.1  68.2 1016.0 29.9  1.022 -99.9 -99.99 -9.99
2019/08/20 03:00 EDT    1.01   1.42    0  306    0  71.1  68.2 1016.1 29.8  1.022 -99.9 -99.99 -9.99
2019/08/20 03:06 EDT    0.94   1.29    0  344    1  70.9  68.4 1016.2 29.8  1.022 -99.9 -99.99 -9.99
2019/08/20 03:12 EDT    0.86   1.23    1  318    1  70.7  68.4 1016.2 29.8  1.022 -99.9 -99.99 -9.99
2019/08/20 03:18 EDT    0.80   1.11    1  299    2  70.9  68.4 1016.3 29.8  1.022 -99.9 -99.99 -9.99
2019/08/20 03:24 EDT    0.73   1.08    0  326    1  71.1  68.2 1016.4 29.8  1.022 -99.9 -99.99 -9.99
2019/08/20 03:30 EDT    0.67   0.98    0  321    0  71.1  68.0 1016.4 29.8  1.022 -99.9 -99.99 -9.99
2019/08/20 03:36 EDT    0.61   0.84    0  321    0  70.9  68.2 1016.4 29.8  1.022 -99.9 -99.99 -9.99
2019/08/20 03:42 EDT    0.56   0.82    0  322    0  70.9  68.2 1016.5 29.8  1.022 -99.9 -99.99 -9.99
2019/08/20 03:48 EDT    0.51   0.80    0  322    0  70.9  68.0 1016.5 29.9  1.022 -99.9 -99.99 -9.99
2019/08/20 03:54 EDT    0.47   0.72    0  321    0  70.7  68.2 1016.5 29.6  1.022 -99.9 -99.99 -9.99
2019/08/20 04:00 EDT    0.43   0.74    0  306    1  70.7  67.8 1016.6 29.9  1.022 -99.9 -99.99 -9.99
2019/08/20 04:06 EDT    0.40   0.63    0  307    1  70.5  68.2 1016.7 29.8  1.022 -99.9 -99.99 -9.99
2019/08/20 04:12 EDT    0.37   0.63    0   14    0  70.5  68.0 1016.7 29.8  1.022 -99.9 -99.99 -9.99
2019/08/20 04:18 EDT    0.35   0.59    0   14    0  70.3  67.8 1016.7 29.8  1.022 -99.9 -99.99 -9.99
2019/08/20 04:24 EDT    0.33   0.59    0   14    0  70.3  67.5 1016.7 29.9  1.022 -99.9 -99.99 -9.99
2019/08/20 04:30 EDT    0.32   0.62    0   14    0  70.2  67.3 1016.8 29.9  1.022 -99.9 -99.99 -9.99
2019/08/20 04:36 EDT    0.31   0.55    0   14    0  70.2  67.5 1016.8 29.9  1.022 -99.9 -99.99 -9.99
2019/08/20 04:42 EDT    0.31   0.59    0   14    0  70.0  67.3 1016.8 29.9  1.022 -99.9 -99.99 -9.99
2019/08/20 04:48 EDT    0.31   0.55    0   14    0  70.0  67.3 1016.9 29.7  1.022 -99.9 -99.99 -9.99
2019/08/20 04:54 EDT    0.31   0.59    0   14    0  70.0  67.1 1017.0 29.8  1.022 -99.9 -99.99 -9.99
2019/08/20 05:00 EDT    0.32   0.59    0   14    0  70.0  66.9 1017.1 29.9  1.022 -99.9 -99.99 -9.99
2019/08/20 05:06 EDT    0.33   0.60    0   14    0  70.2  66.9 1017.1 29.9  1.022 -99.9 -99.99 -9.99
2019/08/20 05:12 EDT    0.35   0.66    0   14    0  70.0  66.6 1017.1 30.0  1.022 -99.9 -99.99 -9.99
2019/08/20 05:18 EDT    0.37   0.64    0   14    0  69.8  66.4 1017.1 30.1  1.022 -99.9 -99.99 -9.99
2019/08/20 05:24 EDT    0.39   0.71    0   14    0  69.8  66.4 1017.2 29.9  1.022 -99.9 -99.99 -9.99
2019/08/20 05:30 EDT    0.42   0.74    0   14    0  69.6  66.2 1017.3 30.1  1.022 -99.9 -99.99 -9.99
2019/08/20 05:36 EDT    0.45   0.83    0  342    0  69.6  65.8 1017.4 30.1  1.022 -99.9 -99.99 -9.99
2019/08/20 05:42 EDT    0.48   0.78    1  296    1  69.6  65.7 1017.5 30.2  1.022 -99.9 -99.99 -9.99
2019/08/20 05:48 EDT    0.52   0.83    1  251    2  69.8  65.8 1017.6 30.2  1.022 -99.9 -99.99 -9.99
2019/08/20 05:54 EDT    0.55   0.89    2  221    2  70.0  65.7 1017.6 30.1  1.022 -99.9 -99.99 -9.99
2019/08/20 06:00 EDT    0.59   0.89    2  197    2  70.2  65.7 1017.7 30.1  1.022 -99.9 -99.99 -9.99
2019/08/20 06:06 EDT    0.63   1.01    2  180    2  70.2  65.5 1017.7 30.2  1.022 -99.9 -99.99 -9.99
2019/08/20 06:12 EDT    0.67   0.99    2  194    2  70.0  65.7 1017.8 30.2  1.022 -99.9 -99.99 -9.99
2019/08/20 06:18 EDT    0.72   1.05    2  221    2  70.3  65.7 1017.9 30.2  1.022 -99.9 -99.99 -9.99
2019/08/20 06:24 EDT    0.76   1.17    2  247    3  70.3  66.0 1017.9 30.2  1.022 -99.9 -99.99 -9.99
2019/08/20 06:30 EDT    0.81   1.19    1  286    2  70.7  66.0 1017.9 -9.9 -9.999 -99.9 -99.99 -9.99
2019/08/20 06:36 EDT    0.85   1.21    0  303    2  71.4  65.8 1017.9 30.2  1.022 -99.9 -99.99 -9.99
2019/08/20 06:42 EDT    0.90   1.25    0  299    0  72.7  65.8 1017.9 30.2  1.022 -99.9 -99.99 -9.99
2019/08/20 06:48 EDT    0.95   1.38    1  259    2  72.5  65.7 1018.0 30.2  1.022 -99.9 -99.99 -9.99
2019/08/20 06:54 EDT    1.00   1.36    0  320    1  73.9  65.7 1018.0 30.2  1.022 -99.9 -99.99 -9.99
2019/08/20 07:00 EDT    1.05   1.39    0  301    1  75.0  65.8 1018.1 30.2  1.022 -99.9 -99.99 -9.99
2019/08/20 07:06 EDT    1.10   1.49    2  216    2  74.5  65.8 1018.3 30.2  1.022 -99.9 -99.99 -9.99
2019/08/20 07:12 EDT    1.16   1.51    2  230    2  73.6  66.0 1018.3 30.2  1.022 -99.9 -99.99 -9.99
2019/08/20 07:18 EDT    1.21   1.60    1  245    2  72.9  66.0 1018.4 30.1  1.022 -99.9 -99.99 -9.99
2019/08/20 07:24 EDT    1.27   1.63    2  229    2  72.9  66.0 1018.4 30.1  1.022 -99.9 -99.99 -9.99
2019/08/20 07:30 EDT    1.32   1.73    1  295    2  73.6  66.0 1018.4 -9.9 -9.999 -99.9 -99.99 -9.99
2019/08/20 07:36 EDT    1.38   1.78    1    1    1  75.6  66.0 1018.4 30.2  1.022 -99.9 -99.99 -9.99
2019/08/20 07:42 EDT    1.44   1.84    2    9    3  74.7  66.2 1018.4 30.2  1.022 -99.9 -99.99 -9.99
2019/08/20 07:48 EDT    1.49   1.94    3  348    4  74.3  66.4 1018.5 30.1  1.022 -99.9 -99.99 -9.99
2019/08/20 07:54 EDT    1.55   1.97    3  341    4  74.3  66.4 1018.6 30.1  1.022 -99.9 -99.99 -9.99
2019/08/20 08:00 EDT    1.61   2.04    3  352    4  74.5  66.4 1018.6 30.1  1.022 -99.9 -99.99 -9.99
2019/08/20 08:06 EDT    1.67   2.13    3  337    5  74.7  66.2 1018.6 30.1  1.022 -99.9 -99.99 -9.99
2019/08/20 08:12 EDT    1.74   2.19    3  350    5  74.8  66.2 1018.6 30.1  1.022 -99.9 -99.99 -9.99
2019/08/20 08:18 EDT    1.80   2.28    3    7    6  75.2  66.2 1018.6 30.1  1.022 -99.9 -99.99 -9.99
2019/08/20 08:24 EDT    1.86   2.30    5   11    6  74.8  66.2 1018.6 30.1  1.022 -99.9 -99.99 -9.99
2019/08/20 08:30 EDT    1.93   2.43    4   10    7  75.2  66.4 1018.5 30.1  1.022 -99.9 -99.99 -9.99
2019/08/20 08:36 EDT    1.99   2.45    5    8    7  75.4  66.4 1018.6 30.1  1.022 -99.9 -99.99 -9.99
2019/08/20 08:42 EDT    2.06   2.50    4    1    7  75.6  66.6 1018.6 30.0  1.022 -99.9 -99.99 -9.99
2019/08/20 08:48 EDT    2.12   2.66    5  355    6  75.6  66.6 1018.6 30.1  1.022 -99.9 -99.99 -9.99
2019/08/20 08:54 EDT    2.19   2.64    3    3    6  75.9  66.6 1018.5 30.1  1.022 -99.9 -99.99 -9.99
2019/08/20 09:00 EDT    2.25   2.74    4  340    5  76.1  66.4 1018.6 30.1  1.022 -99.9 -99.99 -9.99
2019/08/20 09:06 EDT    2.32   2.81    4  339    6  76.3  66.6 1018.6 30.1  1.022 -99.9 -99.99 -9.99
2019/08/20 09:12 EDT    2.38   2.84    4  335    7  76.5  66.4 1018.6 30.1  1.022 -99.9 -99.99 -9.99
2019/08/20 09:18 EDT    2.45   2.94    4  337    7  76.6  66.4 1018.7 30.1  1.022 -99.9 -99.99 -9.99
2019/08/20 09:24 EDT    2.51   2.97    3  327    5  77.2  66.2 1018.6 30.1  1.022 -99.9 -99.99 -9.99
2019/08/20 09:30 EDT    2.57   3.06    4  333    6  77.2  66.4 1018.7 30.1  1.022 -99.9 -99.99 -9.99
2019/08/20 09:36 EDT    2.64   3.10    4  345    6  77.0  66.4 1018.7 30.1  1.022 -99.9 -99.99 -9.99
2019/08/20 09:42 EDT    2.70   3.19    5  329    8  77.0  66.4 1018.7 30.1  1.022 -99.9 -99.99 -9.99
2019/08/20 09:48 EDT    2.76   3.24    4  334    6  77.5  66.4 1018.8 30.1  1.022 -99.9 -99.99 -9.99
2019/08/20 09:54 EDT    2.82   3.27    3   11    6  77.7  66.4 1018.8 30.1  1.022 -99.9 -99.99 -9.99
2019/08/20 10:00 EDT    2.87   3.32    4    9    6  77.5  66.6 1018.7 30.0  1.022 -99.9 -99.99 -9.99
2019/08/20 10:06 EDT    2.93   3.37    4    2    6  77.7  66.6 1018.8 30.0  1.022 -99.9 -99.99 -9.99
2019/08/20 10:12 EDT    2.98   3.40    5    5    7  77.5  66.6 1018.8 30.0  1.022 -99.9 -99.99 -9.99
2019/08/20 10:18 EDT    3.03   3.46    9    1   11  77.4  66.6 1018.8 30.0  1.022 -99.9 -99.99 -9.99
2019/08/20 10:24 EDT    3.08   3.53    7  351   10  77.5  66.4 1018.7 30.1  1.022 -99.9 -99.99 -9.99
2019/08/20 10:30 EDT    3.12   3.53    6  345   10  77.7  66.4 1018.7 30.1  1.022 -99.9 -99.99 -9.99
2019/08/20 10:36 EDT    3.17   3.62    8  350   10  77.7  66.4 1018.7 30.1  1.022 -99.9 -99.99 -9.99
2019/08/20 10:42 EDT    3.21   3.63    8    5   11  77.9  66.4 1018.7 30.1  1.022 -99.9 -99.99 -9.99
2019/08/20 10:48 EDT    3.24   3.65    7    0   11  78.3  66.4 1018.6 30.1  1.022 -99.9 -99.99 -9.99
2019/08/20 10:54 EDT    3.28   3.72    6  351   10  78.8  66.6 1018.7 30.1  1.022 -99.9 -99.99 -9.99
2019/08/20 11:00 EDT    3.30   3.74    7    7    9  78.6  66.0 1018.7 30.1  1.022 -99.9 -99.99 -9.99
2019/08/20 11:06 EDT    3.33   3.75    6    1   10  78.8  66.2 1018.8 30.1  1.022 -99.9 -99.99 -9.99
2019/08/20 11:12 EDT    3.35   3.78    7  349    9  78.4  66.0 1018.8 30.1  1.022 -99.9 -99.99 -9.99
2019/08/20 11:18 EDT    3.37   3.80    8    4   10  78.4  66.0 1018.8 30.1  1.022 -99.9 -99.99 -9.99
2019/08/20 11:24 EDT    3.38   3.81    7    9    9  78.4  65.8 1018.8 30.2  1.022 -99.9 -99.99 -9.99
2019/08/20 11:30 EDT    3.39   3.80    6  348    8  78.6  66.0 1018.7 30.1  1.022 -99.9 -99.99 -9.99
2019/08/20 11:36 EDT    3.39   3.82    7    9    8  78.6  66.0 1018.7 30.2  1.022 -99.9 -99.99 -9.99
2019/08/20 11:42 EDT    3.39   3.84    5  351    8  79.0  66.0 1018.6 -9.9 -9.999 -99.9 -99.99 -9.99
2019/08/20 11:48 EDT    3.39   3.84    4    8    8  79.2  66.4 1018.6 30.1  1.022 -99.9 -99.99 -9.99
2019/08/20 11:54 EDT    3.38   3.82    4  348    8  79.2  66.2 1018.6 30.1  1.022 -99.9 -99.99 -9.99
2019/08/20 12:00 EDT    3.37   3.81    3    9    7  79.7  65.8 1018.6 30.2  1.022 -99.9 -99.99 -9.99
2019/08/20 12:06 EDT    3.35   3.82    4  346    7  79.9  65.8 1018.5 30.2  1.022 -99.9 -99.99 -9.99
2019/08/20 12:12 EDT    3.33   3.79    5   13    7  79.9  66.0 1018.5 30.1  1.022 -99.9 -99.99 -9.99
2019/08/20 12:18 EDT    3.30   3.77    4    6    6  80.2  65.8 1018.4 30.2  1.022 -99.9 -99.99 -9.99
2019/08/20 12:24 EDT    3.27   3.72    4   20    6  79.9  65.8 1018.4 30.1  1.022 -99.9 -99.99 -9.99
2019/08/20 12:30 EDT    3.23   3.71    3  345    6  80.2  65.8 1018.4 30.2  1.022 -99.9 -99.99 -9.99
2019/08/20 12:36 EDT    3.20   3.66    4    6    6  80.2  66.0 1018.4 30.1  1.022 -99.9 -99.99 -9.99
2019/08/20 12:42 EDT    3.15   3.67    4   22    7  80.4  66.0 1018.3 30.2  1.022 -99.9 -99.99 -9.99
2019/08/20 12:48 EDT    3.11   3.60    5   21    6  80.2  65.7 1018.3 30.2  1.022 -99.9 -99.99 -9.99
2019/08/20 12:54 EDT    3.06   3.53    3   33    5  80.1  65.7 1018.2 30.2  1.022 -99.9 -99.99 -9.99
2019/08/20 13:00 EDT    3.01   3.52    1  340    4  81.0  66.0 1018.1 30.1  1.022 -99.9 -99.99 -9.99
2019/08/20 13:06 EDT    2.95   3.44    2  263    4  81.7  65.3 1018.2 30.2  1.022 -99.9 -99.99 -9.99
2019/08/20 13:12 EDT    2.89   3.40    2  261    3  81.5  65.1 1018.2 30.3  1.022 -99.9 -99.99 -9.99
2019/08/20 13:18 EDT    2.83   3.30    2  264    3  81.9  66.0 1018.2 30.2  1.022 -99.9 -99.99 -9.99
2019/08/20 13:24 EDT    2.76   3.25    1  294    3  82.8  66.6 1018.2 30.0  1.022 -99.9 -99.99 -9.99
2019/08/20 13:30 EDT    2.70   3.22    2  253    3  82.8  66.2 1018.1 30.2  1.022 -99.9 -99.99 -9.99
2019/08/20 13:36 EDT    2.63   3.11    2  209    3  82.9  67.1 1018.1 29.8  1.022 -99.9 -99.99 -9.99
2019/08/20 13:42 EDT    2.56   3.06    3  198    3  82.8  67.1 1018.1 30.0  1.022 -99.9 -99.99 -9.99
2019/08/20 13:48 EDT    2.48   2.99    3  186    4  83.1  65.3 1018.1 30.3  1.022 -99.9 -99.99 -9.99
2019/08/20 13:54 EDT    2.41   2.91    5  221    7  79.2  66.2 1018.1 30.2  1.022 -99.9 -99.99 -9.99
2019/08/20 14:00 EDT    2.33   2.82    6  222    7  77.7  65.7 1018.0 30.1  1.022 -99.9 -99.99 -9.99
2019/08/20 14:06 EDT    2.25   2.70    5  201    7  79.3  67.1 1017.9 30.1  1.022 -99.9 -99.99 -9.99
2019/08/20 14:12 EDT    2.17   2.66    7  196    8  79.9  66.4 1018.0 30.1  1.022 -99.9 -99.99 -9.99
2019/08/20 14:18 EDT    2.09   2.56    7  197    7  80.1  66.4 1018.1 29.9  1.022 -99.9 -99.99 -9.99
2019/08/20 14:24 EDT    2.01   2.47    6  197    7  80.1  64.9 1018.1 30.3  1.023 -99.9 -99.99 -9.99
2019/08/20 14:30 EDT    1.93   2.39    5  199    7  79.2  66.6 1018.1 29.9  1.022 -99.9 -99.99 -9.99
2019/08/20 14:36 EDT    1.85   2.24    6  219    7  78.4  64.9 1018.1 30.3  1.022 -99.9 -99.99 -9.99
2019/08/20 14:42 EDT    1.77   2.18    6  218    7  78.3  66.4 1018.0 30.2  1.022 -99.9 -99.99 -9.99
2019/08/20 14:48 EDT    1.69   2.06    6  222    7  77.7  66.6 1018.1 30.0  1.022 -99.9 -99.99 -9.99
2019/08/20 14:54 EDT    1.61   1.95    5  212    7  78.4  67.1 1018.2 29.9  1.022 -99.9 -99.99 -9.99
2019/08/20 15:00 EDT    1.53   1.88    8  222    8  77.5  66.9 1018.2 30.0  1.022 -99.9 -99.99 -9.99
2019/08/20 15:06 EDT    1.45   1.79    8  210   10  77.2  66.9 1018.4 29.9  1.022 -99.9 -99.99 -9.99
2019/08/20 15:12 EDT    1.38   1.71    7  202   10  78.1  67.3 1018.4 30.0  1.022 -99.9 -99.99 -9.99
2019/08/20 15:18 EDT    1.30   1.62    7  199    8  78.8  67.3 1018.4 30.0  1.022 -99.9 -99.99 -9.99
2019/08/20 15:24 EDT    1.23   1.57    7  208    9  78.3  66.7 1018.4 30.0  1.022 -99.9 -99.99 -9.99
2019/08/20 15:30 EDT    1.17   1.44    7  208    9  78.1  67.3 1018.3 29.9  1.022 -99.9 -99.99 -9.99
2019/08/20 15:36 EDT    1.10   1.34    8  206   10  78.4  66.6 1018.2 30.0  1.022 -99.9 -99.99 -9.99
2019/08/20 15:42 EDT    1.04   1.30    7  199    9  78.6  66.4 1018.2 30.1  1.022 -99.9 -99.99 -9.99
2019/08/20 15:48 EDT    0.98   1.19    6  191    7  79.2  67.1 1018.2 29.9  1.022 -99.9 -99.99 -9.99
2019/08/20 15:54 EDT    0.92   1.14    7  189    8  79.5  66.9 1018.2 30.0  1.022 -99.9 -99.99 -9.99
2019/08/20 16:00 EDT    0.87   1.08    6  187    8  80.1  67.1 1018.2 30.0  1.022 -99.9 -99.99 -9.99
2019/08/20 16:06 EDT    0.83   0.99    7  194    8  80.1  67.5 1018.1 29.9  1.022 -99.9 -99.99 -9.99
2019/08/20 16:12 EDT    0.78   0.99    6  194    8  79.7  67.8 1018.0 29.8  1.022 -99.9 -99.99 -9.99
2019/08/20 16:18 EDT    0.74   0.91    6  186    8  79.9  67.5 1017.9 29.8  1.022 -99.9 -99.99 -9.99
2019/08/20 16:24 EDT    0.71   0.85    7  199    8  79.7  67.3 1017.9 29.8  1.022 -99.9 -99.99 -9.99
2019/08/20 16:30 EDT    0.68   0.85    8  203   10  79.3  67.5 1017.8 29.8  1.022 -99.9 -99.99 -9.99
2019/08/20 16:36 EDT    0.65   0.80    8  206   10  79.0  67.6 1017.9 29.9  1.022 -99.9 -99.99 -9.99
2019/08/20 16:42 EDT    0.63   0.81    8  205    9  78.6  67.8 1017.8 29.9  1.022 -99.9 -99.99 -9.99
2019/08/20 16:48 EDT    0.62   0.82    8  206   10  78.3  68.0 1017.7 29.8  1.022 -99.9 -99.99 -9.99
2019/08/20 16:54 EDT    0.60   0.79    7  203    9  78.3  67.8 1017.8 29.8  1.022 -99.9 -99.99 -9.99
2019/08/20 17:00 EDT    0.60   0.78    8  212    9  78.6  67.6 1017.7 29.8  1.022 -99.9 -99.99 -9.99
2019/08/20 17:06 EDT    0.59   0.80    9  211   10  78.3  67.6 1017.7 29.8  1.022 -99.9 -99.99 -9.99
2019/08/20 17:12 EDT    0.59   0.81    8  207    9  78.3  67.6 1017.7 29.8  1.022 -99.9 -99.99 -9.99
2019/08/20 17:18 EDT    0.59   0.77    8  206    9  78.4  67.5 1017.7 29.8  1.022 -99.9 -99.99 -9.99
2019/08/20 17:24 EDT    0.60   0.82    8  207   10  79.0  67.6 1017.7 29.8  1.022 -99.9 -99.99 -9.99
2019/08/20 17:30 EDT    0.61   0.83    7  213    9  78.8  67.8 1017.8 29.8  1.022 -99.9 -99.99 -9.99
2019/08/20 17:36 EDT    0.62   0.87    8  210   10  78.6  68.0 1017.8 29.7  1.022 -99.9 -99.99 -9.99
2019/08/20 17:42 EDT    0.64   0.89    8  212    9  78.4  68.2 1017.8 29.8  1.022 -99.9 -99.99 -9.99
2019/08/20 17:48 EDT    0.66   0.91    8  214   10  78.3  67.8 1017.8 29.7  1.022 -99.9 -99.99 -9.99
2019/08/20 17:54 EDT    0.68   0.94    8  214   10  77.7  68.0 1017.9 29.8  1.022 -99.9 -99.99 -9.99
2019/08/20 18:00 EDT    0.70   0.98    9  211   10  77.5  67.8 1017.8 29.7  1.022 -99.9 -99.99 -9.99
2019/08/20 18:06 EDT    0.72   1.02    8  214   10  77.0  67.6 1017.9 29.7  1.022 -99.9 -99.99 -9.99
2019/08/20 18:12 EDT    0.75   1.07    8  214   10  76.8  67.8 1017.8 29.8  1.022 -99.9 -99.99 -9.99
2019/08/20 18:18 EDT    0.78   1.13    9  212    9  76.6  67.8 1017.8 29.9  1.022 -99.9 -99.99 -9.99
2019/08/20 18:24 EDT    0.81   1.17    8  216   10  76.3  67.6 1017.7 29.8  1.022 -99.9 -99.99 -9.99
2019/08/20 18:30 EDT    0.84   1.23    7  217    9  76.3  67.6 1017.7 29.9  1.022 -99.9 -99.99 -9.99
2019/08/20 18:36 EDT    0.87   1.27    8  219    9  76.1  67.8 1017.7 29.8  1.022 -99.9 -99.99 -9.99
2019/08/20 18:42 EDT    0.90   1.29    7  214    8  75.9  67.8 1017.7 29.9  1.022 -99.9 -99.99 -9.99
2019/08/20 18:48 EDT    0.93   1.33    8  207   10  75.9  67.8 1017.7 29.9  1.022 -99.9 -99.99 -9.99
2019/08/20 18:54 EDT    0.97   1.36    7  205    9  75.4  68.0 1017.7 29.8  1.022 -99.9 -99.99 -9.99
2019/08/20 19:00 EDT    1.00   1.43    5  199    8  75.2  68.4 1017.6 29.8  1.022 -99.9 -99.99 -9.99
2019/08/20 19:06 EDT    1.04   1.49    4  193    6  75.4  68.4 1017.5 29.9  1.022 -99.9 -99.99 -9.99
2019/08/20 19:12 EDT    1.08   1.54    5  191    5  75.4  68.4 1017.4 29.8  1.022 -99.9 -99.99 -9.99
2019/08/20 19:18 EDT    1.11   1.57    5  190    6  75.2  68.4 1017.2 29.8  1.022 -99.9 -99.99 -9.99
2019/08/20 19:24 EDT    1.15   1.62    4  180    6  75.2  68.2 1017.2 29.9  1.022 -99.9 -99.99 -9.99
2019/08/20 19:30 EDT    1.19   1.66    4  184    5  75.0  68.2 1017.2 29.9  1.022 -99.9 -99.99 -9.99
2019/08/20 19:36 EDT    1.23   1.74    5  185    6  74.7  68.2 1017.2 29.8  1.022 -99.9 -99.99 -9.99
2019/08/20 19:42 EDT    1.28   1.79    5  183    6  74.3  68.2 1017.2 29.8  1.022 -99.9 -99.99 -9.99
2019/08/20 19:48 EDT    1.32   1.83    4  170    6  74.5  68.4 1017.2 29.8  1.022 -99.9 -99.99 -9.99
2019/08/20 19:54 EDT    1.36   1.91    4  170    5  74.3  68.2 1017.2 29.9  1.022 -99.9 -99.99 -9.99
2019/08/20 20:00 EDT    1.41   1.92    4  174    5  74.1  68.4 1017.3 29.7  1.022 -99.9 -99.99 -9.99
2019/08/20 20:06 EDT    1.45   1.98    3  183    5  73.9  68.4 1017.3 29.8  1.022 -99.9 -99.99 -9.99
2019/08/20 20:12 EDT    1.50   2.07    3  211    4  73.9  68.4 1017.5 29.8  1.022 -99.9 -99.99 -9.99
2019/08/20 20:18 EDT    1.55   2.06    2  217    4  73.6  68.4 1017.6 29.9  1.022 -99.9 -99.99 -9.99
2019/08/20 20:24 EDT    1.60   2.14    4  205    5  73.4  68.4 1017.6 29.9  1.022 -99.9 -99.99 -9.99
2019/08/20 20:30 EDT    1.65   2.18    4  193    5  73.0  68.4 1017.6 29.8  1.022 -99.9 -99.99 -9.99
2019/08/20 20:36 EDT    1.70   2.20    4  188    5  72.9  68.4 1017.7 29.7  1.022 -99.9 -99.99 -9.99
2019/08/20 20:42 EDT    1.76   2.27    4  180    5  72.9  68.5 1017.7 29.8  1.022 -99.9 -99.99 -9.99
2019/08/20 20:48 EDT    1.81   2.33    4  181    4  73.0  68.4 1017.6 29.7  1.022 -99.9 -99.99 -9.99
2019/08/20 20:54 EDT    1.87   2.39    3  168    4  73.0  68.5 1017.6 29.8  1.022 -99.9 -99.99 -9.99
2019/08/20 21:00 EDT    1.92   2.43    3  162    4  73.6  68.5 1017.7 29.8  1.022 -99.9 -99.99 -9.99
2019/08/20 21:06 EDT    1.98   2.49    4  169    4  73.6  68.4 1017.6 29.8  1.022 -99.9 -99.99 -9.99
2019/08/20 21:12 EDT    2.03   2.53    4  175    4  73.6  68.5 1017.6 29.8  1.022 -99.9 -99.99 -9.99
2019/08/20 21:18 EDT    2.09   2.60    3  188    4  73.4  68.5 1017.6 29.8  1.022 -99.9 -99.99 -9.99
2019/08/20 21:24 EDT    2.15   2.65    4  184    4  73.4  68.5 1017.6 29.8  1.022 -99.9 -99.99 -9.99
2019/08/20 21:30 EDT    2.21   2.61    5  184    6  73.6  68.5 1017.6 29.8  1.022 -99.9 -99.99 -9.99
2019/08/20 21:36 EDT    2.27   2.72    4  183    6  73.4  68.5 1017.6 29.8  1.022 -99.9 -99.99 -9.99
2019/08/20 21:42 EDT    2.33   2.76    4  190    6  73.4  68.5 1017.7 29.8  1.022 -99.9 -99.99 -9.99
2019/08/20 21:48 EDT    2.38   2.77    3  198    5  73.4  68.5 1017.8 29.8  1.022 -99.9 -99.99 -9.99
2019/08/20 21:54 EDT    2.44   2.85    3  187    3  73.0  68.5 1017.8 29.8  1.022 -99.9 -99.99 -9.99
2019/08/20 22:00 EDT    2.50   2.88    2  175    4  73.0  68.4 1017.8 29.9  1.022 -99.9 -99.99 -9.99
2019/08/20 22:06 EDT    2.55   2.91    3  221    3  73.2  68.4 1017.8 29.8  1.022 -99.9 -99.99 -9.99
2019/08/20 22:12 EDT    2.61   2.97    3  209    4  73.0  68.4 1017.8 29.9  1.022 -99.9 -99.99 -9.99
2019/08/20 22:18 EDT    2.66   3.03    2  208    4  72.9  68.4 1017.8 29.8  1.022 -99.9 -99.99 -9.99
2019/08/20 22:24 EDT    2.72   3.06    2  187    3  72.5  68.4 1017.8 29.8  1.022 -99.9 -99.99 -9.99
2019/08/20 22:30 EDT    2.77   3.15    2  172    3  72.1  68.4 1017.7 29.7  1.022 -99.9 -99.99 -9.99
2019/08/20 22:36 EDT    2.81   3.19    3  177    3  72.1  68.4 1017.8 29.8  1.022 -99.9 -99.99 -9.99
2019/08/20 22:42 EDT    2.86   3.23    3  175    4  72.3  68.4 1017.8 29.8  1.022 -99.9 -99.99 -9.99
2019/08/20 22:48 EDT    2.90   3.31    2  175    3  72.3  68.4 1017.8 29.8  1.022 -99.9 -99.99 -9.99
2019/08/20 22:54 EDT    2.95   3.33    2  172    3  72.3  68.4 1017.9 29.8  1.022 -99.9 -99.99 -9.99
2019/08/20 23:00 EDT    2.98   3.35    3  167    3  72.7  68.4 1017.9 29.8  1.022 -99.9 -99.99 -9.99
2019/08/20 23:06 EDT    3.02   3.41    2  168    4  72.9  68.4 1017.9 29.8  1.022 -99.9 -99.99 -9.99
2019/08/20 23:12 EDT    3.05   3.42    3  185    4  72.9  68.5 1017.8 29.7  1.022 -99.9 -99.99 -9.99
2019/08/20 23:18 EDT    3.08   3.45    3  186    4  72.9  68.4 1017.9 29.7  1.022 -99.9 -99.99 -9.99
2019/08/20 23:24 EDT    3.10   3.50    3  191    4  72.9  68.4 1017.9 29.8  1.022 -99.9 -99.99 -9.99
2019/08/20 23:30 EDT    3.12   3.50    2  174    3  72.9  68.4 1017.8 29.8  1.022 -99.9 -99.99 -9.99
2019/08/20 23:36 EDT    3.14   3.52    2  176    3  73.0  68.4 1017.9 29.8  1.022 -99.9 -99.99 -9.99
2019/08/20 23:42 EDT    3.15   3.55    1  170    2  72.9  68.4 1017.8 29.8  1.022 -99.9 -99.99 -9.99
2019/08/20 23:48 EDT    3.16   3.59    2  171    3  72.9  68.4 1017.8 29.8  1.022 -99.9 -99.99 -9.99
2019/08/20 23:54 EDT    3.17   3.57    2  163    3  72.7  68.4 1017.7 29.8  1.022 -99.9 -99.99 -9.99
2019/08/21 00:00 EDT    3.16   3.60    2  131    3  72.5  68.4 1017.9 29.8  1.022 -99.9 -99.99 -9.99
2019/08/21 00:06 EDT    3.16   3.61    2  150    3  72.7  68.4 1017.8 29.8  1.022 -99.9 -99.99 -9.99
2019/08/21 00:12 EDT    3.15   3.62    2  171    3  72.5  68.4 1017.8 29.8  1.022 -99.9 -99.99 -9.99
2019/08/21 00:18 EDT    3.14   3.62    2  184    3  72.5  68.4 1017.8 29.8  1.022 -99.9 -99.99 -9.99
2019/08/21 00:24 EDT    3.12   3.59    2  200    3  72.3  68.4 1017.8 29.8  1.022 -99.9 -99.99 -9.99
2019/08/21 00:30 EDT    3.10   3.58    2  187    3  72.3  68.4 1017.7 29.8  1.022 -99.9 -99.99 -9.99
2019/08/21 00:36 EDT    3.07   3.54    3  178    3  72.3  68.4 1017.7 29.8  1.022 -99.9 -99.99 -9.99
2019/08/21 00:42 EDT    3.04   3.48    2  179    3  72.3  68.4 1017.7 29.8  1.022 -99.9 -99.99 -9.99
2019/08/21 00:48 EDT    3.00   3.45    3  169    4  72.3  68.5 1017.6 29.7  1.022 -99.9 -99.99 -9.99
2019/08/21 00:54 EDT    2.96   3.45    3  165    4  72.3  68.4 1017.7 29.8  1.022 -99.9 -99.99 -9.99
2019/08/21 01:00 EDT    2.92   3.42    3  154    4  72.5  68.2 1017.7 29.8  1.022 -99.9 -99.99 -9.99
2019/08/21 01:06 EDT    2.87   3.36    4  155    4  72.5  68.2 1017.8 29.8  1.022 -99.9 -99.99 -9.99
2019/08/21 01:12 EDT    2.82   3.28    3  166    4  72.5  68.2 1017.7 29.8  1.022 -99.9 -99.99 -9.99
2019/08/21 01:18 EDT    2.76   3.27    4  182    5  72.3  68.2 1017.8 29.8  1.022 -99.9 -99.99 -9.99
2019/08/21 01:24 EDT    2.71   3.23    4  181    5  72.3  68.2 1017.9 29.8  1.022 -99.9 -99.99 -9.99
2019/08/21 01:30 EDT    2.64   3.19    3  173    5  72.1  68.2 1017.9 29.7  1.022 -99.9 -99.99 -9.99
2019/08/21 01:36 EDT    2.58   3.08    4  173    5  72.1  67.8 1017.8 29.8  1.022 -99.9 -99.99 -9.99
2019/08/21 01:42 EDT    2.51   3.04    4  179    4  72.1  68.0 1017.8 29.8  1.022 -99.9 -99.99 -9.99
2019/08/21 01:48 EDT    2.44   2.97    4  177    5  72.1  68.0 1017.8 29.8  1.022 -99.9 -99.99 -9.99
2019/08/21 01:54 EDT    2.37   2.92    4  169    5  72.3  68.0 1017.8 29.8  1.022 -99.9 -99.99 -9.99
2019/08/21 02:00 EDT    2.30   2.86    4  175    5  72.3  68.2 1017.9 29.7  1.022 -99.9 -99.99 -9.99
2019/08/21 02:06 EDT    2.22   2.73    4  172    5  72.3  68.2 1017.9 29.7  1.022 -99.9 -99.99 -9.99
2019/08/21 02:12 EDT    2.14   2.67    3  173    5  72.1  68.0 1018.0 29.8  1.022 -99.9 -99.99 -9.99
2019/08/21 02:18 EDT    2.06   2.54    3  176    4  72.1  68.2 1017.9 29.7  1.022 -99.9 -99.99 -9.99
2019/08/21 02:24 EDT    1.98   2.48    4  160    4  72.1  68.2 1017.8 29.7  1.022 -99.9 -99.99 -9.99
2019/08/21 02:30 EDT    1.90   2.39    3  156    4  72.1  68.2 1017.7 29.7  1.022 -99.9 -99.99 -9.99
2019/08/21 02:36 EDT    1.82   2.23    3  155    4  72.1  68.2 1017.7 29.7  1.022 -99.9 -99.99 -9.99
2019/08/21 02:42 EDT    1.74   2.18    2  146    4  72.1  68.2 1017.5 29.7  1.022 -99.9 -99.99 -9.99
2019/08/21 02:48 EDT    1.65   2.06    1  116    3  72.0  68.0 1017.4 29.8  1.022 -99.9 -99.99 -9.99
2019/08/21 02:54 EDT    1.57   2.00    0  110    1  71.8  68.2 1017.4 29.7  1.022 -99.9 -99.99 -9.99
2019/08/21 03:00 EDT    1.49   1.89    2  111    2  71.8  68.2 1017.3 29.7  1.022 -99.9 -99.99 -9.99
2019/08/21 03:06 EDT    1.41   1.77    2   99    2  71.4  68.2 1017.2 29.7  1.022 -99.9 -99.99 -9.99
2019/08/21 03:12 EDT    1.33   1.73    1  125    2  71.4  68.2 1017.1 29.7  1.022 -99.9 -99.99 -9.99
2019/08/21 03:18 EDT    1.25   1.64    1  133    2  71.6  68.2 1017.1 29.7  1.022 -99.9 -99.99 -9.99
2019/08/21 03:24 EDT    1.17   1.57    2  132    2  71.6  68.2 1016.9 29.7  1.022 -99.9 -99.99 -9.99
2019/08/21 03:30 EDT    1.10   1.52    1  106    2  71.4  68.2 1016.9 29.7  1.022 -99.9 -99.99 -9.99
2019/08/21 03:36 EDT    1.03   1.40    0   42    1  71.1  68.2 1016.8 29.7  1.022 -99.9 -99.99 -9.99
2019/08/21 03:42 EDT    0.96   1.31    1   93    1  71.1  68.2 1016.7 29.7  1.022 -99.9 -99.99 -9.99
2019/08/21 03:48 EDT    0.89   1.21    2   99    3  71.1  68.2 1016.7 29.7  1.022 -99.9 -99.99 -9.99
2019/08/21 03:54 EDT    0.83   1.15    2  124    2  71.2  68.0 1016.7 29.8  1.022 -99.9 -99.99 -9.99
2019/08/21 04:00 EDT    0.77   1.10    3  142    4  71.4  68.0 1016.7 29.7  1.022 -99.9 -99.99 -9.99
2019/08/21 04:06 EDT    0.71   1.09    2  134    4  71.8  68.0 1016.7 29.8  1.022 -99.9 -99.99 -9.99
2019/08/21 04:12 EDT    0.66   0.99    2  124    3  71.4  68.0 1016.7 29.7  1.022 -99.9 -99.99 -9.99
2019/08/21 04:18 EDT    0.61   0.94    2  143    3  71.4  68.0 1016.8 29.1  1.021 -99.9 -99.99 -9.99
2019/08/21 04:24 EDT    0.57   0.96    2  157    3  71.6  67.8 1016.9 29.1  1.021 -99.9 -99.99 -9.99
2019/08/21 04:30 EDT    0.53   0.88    2  168    3  71.2  67.8 1017.0 29.5  1.021 -99.9 -99.99 -9.99
2019/08/21 04:36 EDT    0.49   0.91    2  161    2  71.1  68.0 1017.0 29.5  1.022 -99.9 -99.99 -9.99
2019/08/21 04:42 EDT    0.46   0.84    2  140    2  70.9  68.0 1017.0 29.7  1.022 -99.9 -99.99 -9.99
2019/08/21 04:48 EDT    0.44   0.78    1  139    2  70.9  67.8 1017.0 29.8  1.022 -99.9 -99.99 -9.99
2019/08/21 04:54 EDT    0.42   0.78    1  105    2  70.9  67.6 1016.7 29.8  1.022 -99.9 -99.99 -9.99
2019/08/21 05:00 EDT    0.40   0.82    1  138    3  71.2  67.6 1016.7 29.8  1.022 -99.9 -99.99 -9.99
2019/08/21 05:06 EDT    0.39   0.86    1  125    2  71.2  67.6 1016.7 29.8  1.022 -99.9 -99.99 -9.99
2019/08/21 05:12 EDT    0.39   0.81    1  105    2  71.4  67.6 1016.6 29.8  1.022 -99.9 -99.99 -9.99
2019/08/21 05:18 EDT    0.38   0.87    1  139    3  71.6  67.5 1016.6 29.9  1.022 -99.9 -99.99 -9.99
2019/08/21 05:24 EDT    0.39   0.83    2  171    3  72.3  67.5 1016.5 29.9  1.022 -99.9 -99.99 -9.99
2019/08/21 05:30 EDT    0.39   0.83    2  158    3  72.1  67.5 1016.5 29.8  1.022 -99.9 -99.99 -9.99
2019/08/21 05:36 EDT    0.40   0.86    3  146    3  72.7  67.1 1016.5 29.7  1.022 -99.9 -99.99 -9.99
2019/08/21 05:42 EDT    0.42   0.86    3  141    3  72.7  67.1 1016.4 29.9  1.022 -99.9 -99.99 -9.99
2019/08/21 05:48 EDT    0.44   0.85    3  154    4  72.9  66.9 1016.4 29.9  1.022 -99.9 -99.99 -9.99
2019/08/21 05:54 EDT    0.46   0.86    4  151    5  72.9  67.1 1016.4 29.9  1.022 -99.9 -99.99 -9.99
2019/08/21 06:00 EDT    0.48   0.93    3  155    5  73.0  67.1 1016.4 29.9  1.022 -99.9 -99.99 -9.99
2019/08/21 06:06 EDT    0.51   0.92    4  152    5  73.2  66.9 1016.3 29.9  1.022 -99.9 -99.99 -9.99
2019/08/21 06:12 EDT    0.54   1.00    3  152    4  73.2  66.9 1016.4 30.0  1.022 -99.9 -99.99 -9.99
2019/08/21 06:18 EDT    0.57   1.02    3  141    4  73.2  67.5 1016.3 29.9  1.022 -99.9 -99.99 -9.99
2019/08/21 06:24 EDT    0.61   1.04    4  138    5  73.2  67.3 1016.2 29.9  1.022 -99.9 -99.99 -9.99
2019/08/21 06:30 EDT    0.64   1.14    4  149    5  73.4  67.5 1016.2 29.9  1.022 -99.9 -99.99 -9.99
2019/08/21 06:36 EDT    0.68   1.11    4  157    5  73.8  67.5 1016.3 29.9  1.022 -99.9 -99.99 -9.99
2019/08/21 06:42 EDT    0.72   1.19    4  164    4  74.3  67.3 1016.3 29.9  1.022 -99.9 -99.99 -9.99
2019/08/21 06:48 EDT    0.76   1.23    4  175    5  74.7  67.1 1016.3 29.9  1.022 -99.9 -99.99 -9.99
2019/08/21 06:54 EDT    0.80   1.26    4  169    6  75.0  67.1 1016.3 29.9  1.022 -99.9 -99.99 -9.99
2019/08/21 07:00 EDT    0.85   1.34    6  167    7  75.2  67.3 1016.3 29.9  1.022 -99.9 -99.99 -9.99
2019/08/21 07:06 EDT    0.89   1.33    4  149    6  75.6  67.1 1016.2 29.9  1.022 -99.9 -99.99 -9.99
2019/08/21 07:12 EDT    0.94   1.42    6  147    7  75.4  66.9 1016.2 29.9  1.022 -99.9 -99.99 -9.99
2019/08/21 07:18 EDT    0.98   1.44    5  145    8  75.4  67.1 1016.2 29.9  1.022 -99.9 -99.99 -9.99
2019/08/21 07:24 EDT    1.03   1.49    6  137    7  75.2  66.9 1016.2 30.0  1.022 -99.9 -99.99 -9.99
2019/08/21 07:30 EDT    1.08   1.60    6  138    8  75.4  66.7 1016.2 30.0  1.022 -99.9 -99.99 -9.99
2019/08/21 07:36 EDT    1.12   1.58    7  146    9  75.4  66.6 1016.2 30.0  1.022 -99.9 -99.99 -9.99
2019/08/21 07:42 EDT    1.17   1.67    6  152    8  75.6  66.6 1016.2 30.0  1.022 -99.9 -99.99 -9.99
2019/08/21 07:48 EDT    1.22   1.76    7  165    9  75.6  66.9 1016.3 30.0  1.022 -99.9 -99.99 -9.99
2019/08/21 07:54 EDT    1.27   1.78    7  166    9  75.6  66.9 1016.4 29.9  1.022 -99.9 -99.99 -9.99
2019/08/21 08:00 EDT    1.32   1.77    5  173    8  75.4  66.9 1016.4 30.0  1.022 -99.9 -99.99 -9.99
2019/08/21 08:06 EDT    1.37   1.86    5  177    7  75.6  66.9 1016.5 30.0  1.022 -99.9 -99.99 -9.99
2019/08/21 08:12 EDT    1.42   1.96    5  173    7  75.7  67.1 1016.5 29.9  1.022 -99.9 -99.99 -9.99
2019/08/21 08:18 EDT    1.48   1.99    5  162    6  75.7  66.9 1016.4 29.9  1.022 -99.9 -99.99 -9.99
2019/08/21 08:24 EDT    1.53   2.09    5  172    6  75.9  66.9 1016.5 30.0  1.022 -99.9 -99.99 -9.99
2019/08/21 08:30 EDT    1.58   2.13    6  175    7  76.3  66.9 1016.5 30.0  1.022 -99.9 -99.99 -9.99
2019/08/21 08:36 EDT    1.64   2.21    5  173    6  76.5  66.9 1016.4 29.9  1.022 -99.9 -99.99 -9.99
2019/08/21 08:42 EDT    1.69   2.32    6  169    7  76.5  66.9 1016.3 29.9  1.022 -99.9 -99.99 -9.99
2019/08/21 08:48 EDT    1.75   2.29    6  174    7  76.3  66.9 1016.4 29.9  1.022 -99.9 -99.99 -9.99
2019/08/21 08:54 EDT    1.81   2.40    6  162    8  76.3  66.9 1016.2 29.9  1.022 -99.9 -99.99 -9.99
2019/08/21 09:00 EDT    1.87   2.46    7  163    8  76.6  66.9 1016.0 29.9  1.022 -99.9 -99.99 -9.99
2019/08/21 09:06 EDT    1.93   2.49    7  171    9  76.8  67.1 1016.1 29.9  1.022 -99.9 -99.99 -9.99
2019/08/21 09:12 EDT    1.98   2.62    7  164    9  76.6  67.1 1015.9 29.9  1.022 -99.9 -99.99 -9.99
2019/08/21 09:18 EDT    2.04   2.71    6  154    9  76.6  67.1 1015.9 29.9  1.022 -99.9 -99.99 -9.99
2019/08/21 09:24 EDT    2.10   2.74    4  158    7  76.6  67.3 1015.8 29.9  1.022 -99.9 -99.99 -9.99
2019/08/21 09:30 EDT    2.17   2.85    6  150    9  76.6  67.3 1015.8 29.9  1.022 -99.9 -99.99 -9.99
2019/08/21 09:36 EDT    2.23   2.89    7  162    9  76.5  67.3 1016.0 29.8  1.022 -99.9 -99.99 -9.99
2019/08/21 09:42 EDT    2.29   2.87    7  158   10  76.1  67.3 1016.0 29.9  1.022 -99.9 -99.99 -9.99
2019/08/21 09:48 EDT    2.35   2.96    8  162   10  76.3  67.3 1016.0 29.9  1.022 -99.9 -99.99 -9.99
2019/08/21 09:54 EDT    2.41   3.03    8  159   10  76.3  67.3 1015.9 29.9  1.022 -99.9 -99.99 -9.99
2019/08/21 10:00 EDT    2.47   3.04    8  158   10  76.6  67.3 1015.7 29.9  1.022 -99.9 -99.99 -9.99
2019/08/21 10:06 EDT    2.53   3.13    7  168   10  76.8  67.5 1015.6 29.8  1.022 -99.9 -99.99 -9.99
2019/08/21 10:12 EDT    2.59   3.17    6  169   10  76.6  67.3 1015.5 29.8  1.022 -99.9 -99.99 -9.99
2019/08/21 10:18 EDT    2.65   3.16    7  171    9  77.0  67.3 1015.4 29.8  1.022 -99.9 -99.99 -9.99
2019/08/21 10:24 EDT    2.71   3.29    7  174    9  77.0  67.3 1015.5 29.8  1.022 -99.9 -99.99 -9.99
2019/08/21 10:30 EDT    2.76   3.31    6  170    8  76.8  67.3 1015.5 29.7  1.022 -99.9 -99.99 -9.99
2019/08/21 10:36 EDT    2.82   3.35    6  166    8  77.0  67.3 1015.4 29.8  1.022 -99.9 -99.99 -9.99
2019/08/21 10:42 EDT    2.87   3.44    9  166   10  77.0  67.5 1015.5 29.8  1.022 -99.9 -99.99 -9.99
2019/08/21 10:48 EDT    2.92   3.48    9  168   11  76.8  67.5 1015.5 29.8  1.022 -99.9 -99.99 -9.99
2019/08/21 10:54 EDT    2.97   3.53   10  165   11  77.2  67.5 1015.2 29.8  1.022 -99.9 -99.99 -9.99
2019/08/21 11:00 EDT    3.02   3.56    9  162   13  77.5  67.5 1015.0 29.8  1.022 -99.9 -99.99 -9.99
2019/08/21 11:06 EDT    3.06   3.60   10  160   12  77.4  67.3 1015.2 29.8  1.022 -99.9 -99.99 -9.99
2019/08/21 11:12 EDT    3.11   3.61    9  159   11  77.0  67.3 1015.1 29.8  1.022 -99.9 -99.99 -9.99
2019/08/21 11:18 EDT    3.15   3.63   13  166   14  76.3  67.3 1015.3 29.8  1.022 -99.9 -99.99 -9.99
2019/08/21 11:24 EDT    3.18   3.64   13  169   21  74.1  67.3 1015.3 29.8  1.022 -99.9 -99.99 -9.99
2019/08/21 11:30 EDT    3.22   3.72   10  163   15  73.8  67.3 1015.0 29.8  1.022 -99.9 -99.99 -9.99
2019/08/21 11:36 EDT    3.25   3.76    5  169   11  73.6  67.3 1014.7 29.8  1.022 -99.9 -99.99 -9.99
2019/08/21 11:42 EDT    3.27   3.84    5  144    5  74.1  67.3 1014.5 29.8  1.022 -99.9 -99.99 -9.99
2019/08/21 11:48 EDT    3.30   3.86    1  165    5  75.2  67.3 1014.4 29.8  1.022 -99.9 -99.99 -9.99
2019/08/21 11:54 EDT    3.32   3.87    4  189    4  75.6  67.3 1014.3 29.7  1.022 -99.9 -99.99 -9.99
2019/08/21 12:00 EDT    3.33   3.92    5  160    6  75.6  67.3 1014.3 29.8  1.022 -99.9 -99.99 -9.99
2019/08/21 12:06 EDT    3.34   3.97    7  179    8  76.5  67.3 1014.3 29.8  1.022 -99.9 -99.99 -9.99
2019/08/21 12:12 EDT    3.35   3.97    7  179   10  76.5  67.3 1014.3 29.8  1.022 -99.9 -99.99 -9.99
2019/08/21 12:18 EDT    3.35   3.93    9  180   12  76.6  67.3 1014.4 29.8  1.022 -99.9 -99.99 -9.99
2019/08/21 12:24 EDT    3.35   4.03    9  182   12  76.6  67.3 1014.3 29.8  1.022 -99.9 -99.99 -9.99
2019/08/21 12:30 EDT    3.35   3.99   10  180   13  76.3  67.3 1014.4 29.8  1.022 -99.9 -99.99 -9.99
2019/08/21 12:36 EDT    3.34   4.09   10  174   12  75.9  67.3 1014.4 29.8  1.022 -99.9 -99.99 -9.99
2019/08/21 12:42 EDT    3.32   4.06   11  171   14  75.9  66.6 1014.4 29.8  1.022 -99.9 -99.99 -9.99
2019/08/21 12:48 EDT    3.30   3.96   10  175   14  75.9  66.2 1014.2 29.9  1.022 -99.9 -99.99 -9.99
2019/08/21 12:54 EDT    3.28   4.03   13  175   15  75.9  67.1 1014.2 29.8  1.022 -99.9 -99.99 -9.99
2019/08/21 13:00 EDT    3.25   3.98   11  182   16  76.3  66.4 1014.4 29.8  1.022 -99.9 -99.99 -9.99
2019/08/21 13:06 EDT    3.22   3.91   12  189   15  76.3  66.2 1014.3 29.8  1.022 -99.9 -99.99 -9.99
2019/08/21 13:12 EDT    3.19   3.91   11  191   14  76.6  65.7 1014.2 29.9  1.022 -99.9 -99.99 -9.99
2019/08/21 13:18 EDT    3.15   3.92   12  188   15  77.0  66.0 1014.2 29.8  1.022 -99.9 -99.99 -9.99
2019/08/21 13:24 EDT    3.11   3.83   11  197   14  77.0  66.2 1014.2 29.9  1.022 -99.9 -99.99 -9.99
2019/08/21 13:30 EDT    3.06   3.86   12  197   16  77.2  66.6 1014.1 29.9  1.022 -99.9 -99.99 -9.99
2019/08/21 13:36 EDT    3.01   3.80   13  190   15  77.0  66.6 1014.1 29.7  1.022 -99.9 -99.99 -9.99
2019/08/21 13:42 EDT    2.96   3.75   14  189   18  77.2  67.1 1014.0 29.8  1.022 -99.9 -99.99 -9.99
2019/08/21 13:48 EDT    2.91   3.71   13  186   17  77.5  66.9 1013.9 29.7  1.022 -99.9 -99.99 -9.99
2019/08/21 13:54 EDT    2.85   3.65   14  187   16  77.5  67.1 1013.9 29.8  1.022 -99.9 -99.99 -9.99
2019/08/21 14:00 EDT    2.79   3.60   12  193   16  77.2  67.3 1013.9 29.7  1.022 -99.9 -99.99 -9.99
2019/08/21 14:06 EDT    2.72   3.55   12  190   14  77.0  67.3 1013.7 29.7  1.022 -99.9 -99.99 -9.99
2019/08/21 14:12 EDT    2.66   3.54   14  188   16  76.8  67.3 1013.6 29.7  1.022 -99.9 -99.99 -9.99
2019/08/21 14:18 EDT    2.59   3.40   12  192   15  76.6  67.3 1013.5 29.7  1.022 -99.9 -99.99 -9.99
2019/08/21 14:24 EDT    2.52   3.33   12  190   15  76.6  67.5 1013.4 29.7  1.022 -99.9 -99.99 -9.99
2019/08/21 14:30 EDT    2.45   3.24   13  196   18  76.3  67.5 1013.3 29.7  1.022 -99.9 -99.99 -9.99
2019/08/21 14:36 EDT    2.38   3.17   13  207   16  76.1  67.5 1013.4 29.7  1.022 -99.9 -99.99 -9.99
2019/08/21 14:42 EDT    2.31   3.14   12  206   16  76.1  67.6 1013.4 29.7  1.022 -99.9 -99.99 -9.99
2019/08/21 14:48 EDT    2.23   3.02   14  204   17  76.5  67.5 1013.3 29.7  1.022 -99.9 -99.99 -9.99
2019/08/21 14:54 EDT    2.16   2.93   13  202   18  76.6  67.6 1013.3 29.7  1.022 -99.9 -99.99 -9.99
2019/08/21 15:00 EDT    2.08   2.83   15  205   18  76.8  67.6 1013.3 29.7  1.022 -99.9 -99.99 -9.99
2019/08/21 15:06 EDT    2.01   2.75   17  207   20  77.0  67.8 1013.3 29.7  1.022 -99.9 -99.99 -9.99
2019/08/21 15:12 EDT    1.93   2.67   16  206   19  77.2  68.0 1013.2 29.7  1.022 -99.9 -99.99 -9.99
2019/08/21 15:18 EDT    1.85   2.52   17  206   23  77.5  68.0 1013.0 29.7  1.022 -99.9 -99.99 -9.99
2019/08/21 15:24 EDT    1.78   2.42   17  208   20  77.5  68.0 1013.0 29.7  1.022 -99.9 -99.99 -9.99
2019/08/21 15:30 EDT    1.71   2.32   14  201   23  77.4  68.2 1013.1 29.7  1.022 -99.9 -99.99 -9.99
2019/08/21 15:36 EDT    1.63   2.26   13  192   17  77.5  68.2 1013.1 29.7  1.022 -99.9 -99.99 -9.99
2019/08/21 15:42 EDT    1.56   2.13   13  195   17  77.7  68.0 1013.1 29.7  1.022 -99.9 -99.99 -9.99
2019/08/21 15:48 EDT    1.49   2.02   14  194   18  78.1  68.5 1013.0 29.6  1.022 -99.9 -99.99 -9.99
2019/08/21 15:54 EDT    1.42   1.98   15  194   19  77.7  68.4 1012.9 29.6  1.022 -99.9 -99.99 -9.99
2019/08/21 16:00 EDT    1.36   1.87   13  189   17  77.7  68.2 1012.9 29.6  1.022 -99.9 -99.99 -9.99
2019/08/21 16:06 EDT    1.29   1.79   13  191   18  77.4  68.7 1013.0 29.6  1.021 -99.9 -99.99 -9.99
2019/08/21 16:12 EDT    1.23   1.72   13  190   17  77.4  68.4 1013.0 29.7  1.022 -99.9 -99.99 -9.99
2019/08/21 16:18 EDT    1.18   1.60   10  191   16  77.5  68.4 1013.0 29.7  1.022 -99.9 -99.99 -9.99
2019/08/21 16:24 EDT    1.12   1.58   10  196   14  77.2  68.7 1013.0 29.6  1.021 -99.9 -99.99 -9.99
2019/08/21 16:30 EDT    1.07   1.52   10  196   17  77.4  68.7 1012.9 29.6  1.021 -99.9 -99.99 -9.99
2019/08/21 16:36 EDT    1.02   1.46    9  196   13  77.2  68.5 1012.8 29.6  1.022 -99.9 -99.99 -9.99
2019/08/21 16:42 EDT    0.97   1.37   10  197   13  76.8  68.7 1012.8 29.2  1.021 -99.9 -99.99 -9.99
2019/08/21 16:48 EDT    0.93   1.35   10  198   13  76.6  68.7 1012.8 29.8  1.022 -99.9 -99.99 -9.99
2019/08/21 16:54 EDT    0.90   1.30    8  202   14  76.8  68.7 1012.9 29.7  1.022 -99.9 -99.99 -9.99
2019/08/21 17:00 EDT    0.86   1.24    8  199   10  77.4  68.7 1012.8 29.8  1.022 -99.9 -99.99 -9.99
2019/08/21 17:06 EDT    0.83   1.21   11  192   12  77.9  68.5 1012.8 29.7  1.022 -99.9 -99.99 -9.99
2019/08/21 17:12 EDT    0.81   1.18   10  196   14  77.5  68.7 1012.8 29.7  1.022 -99.9 -99.99 -9.99
2019/08/21 17:18 EDT    0.79   1.20   11  192   14  77.2  68.7 1012.7 29.7  1.022 -99.9 -99.99 -9.99
2019/08/21 17:24 EDT    0.77   1.22   14  191   16  77.4  68.7 1012.5 29.7  1.022 -99.9 -99.99 -9.99
2019/08/21 17:30 EDT    0.75   1.12   13  189   18  77.2  68.7 1012.4 29.7  1.022 -99.9 -99.99 -9.99
2019/08/21 17:36 EDT    0.74   1.18   14  192   18  76.6  68.7 1012.4 29.8  1.022 -99.9 -99.99 -9.99
2019/08/21 17:42 EDT    0.74   1.22   13  192   17  76.5  68.7 1012.2 29.7  1.022 -99.9 -99.99 -9.99
2019/08/21 17:48 EDT    0.73   1.20   14  192   17  76.5  68.7 1012.1 29.9  1.022 -99.9 -99.99 -9.99
2019/08/21 17:54 EDT    0.73   1.25   12  193   18  76.3  68.7 1012.1 29.9  1.022 -99.9 -99.99 -9.99
2019/08/21 18:00 EDT    0.74   1.24   13  190   16  76.5  68.7 1012.0 29.9  1.022 -99.9 -99.99 -9.99
2019/08/21 18:06 EDT    0.74   1.26   13  190   16  76.1  68.7 1012.0 29.8  1.022 -99.9 -99.99 -9.99
2019/08/21 18:12 EDT    0.75   1.30   13  188   15  76.3  68.7 1011.8 29.8  1.022 -99.9 -99.99 -9.99
2019/08/21 18:18 EDT    0.76   1.32   13  190   17  76.1  68.5 1011.8 29.9  1.022 -99.9 -99.99 -9.99
2019/08/21 18:24 EDT    0.77   1.32   12  191   17  76.1  68.5 1011.8 29.9  1.022 -99.9 -99.99 -9.99
2019/08/21 18:30 EDT    0.79   1.39   12  194   16  76.1  68.5 1011.9 29.9  1.022 -99.9 -99.99 -9.99
2019/08/21 18:36 EDT    0.81   1.44   14  195   17  76.1  68.7 1011.9 29.9  1.022 -99.9 -99.99 -9.99
2019/08/21 18:42 EDT    0.82   1.40   12  194   18  75.7  68.7 1011.7 29.9  1.022 -99.9 -99.99 -9.99
2019/08/21 18:48 EDT    0.84   1.55   11  199   14  75.6  68.9 1011.7 29.8  1.022 -99.9 -99.99 -9.99
2019/08/21 18:54 EDT    0.87   1.53   12  206   15  75.7  68.9 1011.7 29.9  1.022 -99.9 -99.99 -9.99
2019/08/21 19:00 EDT    0.89   1.55   12  196   16  75.7  68.9 1011.6 29.8  1.022 -99.9 -99.99 -9.99
2019/08/21 19:06 EDT    0.91   1.60   13  200   18  75.7  68.7 1011.4 29.9  1.022 -99.9 -99.99 -9.99
2019/08/21 19:12 EDT    0.94   1.62   12  203   18  75.7  68.7 1011.5 29.8  1.022 -99.9 -99.99 -9.99
2019/08/21 19:18 EDT    0.96   1.67   13  203   16  75.7  68.7 1011.5 29.8  1.022 -99.9 -99.99 -9.99
2019/08/21 19:24 EDT    0.99   1.71   12  207   14  75.4  68.7 1011.5 29.8  1.022 -99.9 -99.99 -9.99
2019/08/21 19:30 EDT    1.01   1.72   12  206   16  75.4  68.5 1011.4 29.8  1.022 -99.9 -99.99 -9.99
2019/08/21 19:36 EDT    1.04   1.76   10  211   16  75.0  68.7 1011.5 29.8  1.022 -99.9 -99.99 -9.99
2019/08/21 19:42 EDT    1.07   1.83    8  223   12  74.5  68.5 1011.7 29.9  1.022 -99.9 -99.99 -9.99
2019/08/21 19:48 EDT    1.10   1.84    9  221   11  74.3  68.5 1011.8 29.8  1.022 -99.9 -99.99 -9.99
2019/08/21 19:54 EDT    1.13   1.87   10  218   12  74.3  68.5 1011.7 29.8  1.022 -99.9 -99.99 -9.99
2019/08/21 20:00 EDT    1.16   1.93    9  222   13  74.1  68.5 1011.8 29.8  1.022 -99.9 -99.99 -9.99
2019/08/21 20:06 EDT    1.19   1.90   10  216   11  73.9  68.5 1011.6 29.8  1.022 -99.9 -99.99 -9.99
2019/08/21 20:12 EDT    1.22   2.01   10  219   12  73.9  68.5 1011.8 29.8  1.022 -99.9 -99.99 -9.99
2019/08/21 20:18 EDT    1.25   2.03    9  217   11  73.8  68.5 1011.6 29.8  1.022 -99.9 -99.99 -9.99
2019/08/21 20:24 EDT    1.28   2.01    8  221   10  73.8  68.5 1011.6 29.8  1.022 -99.9 -99.99 -9.99
2019/08/21 20:30 EDT    1.32   2.04    8  221   10  73.8  68.5 1011.8 29.8  1.022 -99.9 -99.99 -9.99
2019/08/21 20:36 EDT    1.35   2.08    9  207   11  73.8  68.5 1011.6 29.8  1.022 -99.9 -99.99 -9.99
2019/08/21 20:42 EDT    1.39   2.13    9  214   11  73.8  68.5 1011.8 29.8  1.022 -99.9 -99.99 -9.99
2019/08/21 20:48 EDT    1.43   2.16    8  211   10  73.8  68.5 1011.8 29.8  1.022 -99.9 -99.99 -9.99
2019/08/21 20:54 EDT    1.47   2.21    9  212   11  73.9  68.7 1011.8 29.7  1.022 -99.9 -99.99 -9.99
2019/08/21 21:00 EDT    1.51   2.22    9  211   11  73.8  68.7 1011.8 29.7  1.022 -99.9 -99.99 -9.99
2019/08/21 21:06 EDT    1.55   2.24    9  207   11  73.8  68.7 1011.9 29.7  1.022 -99.9 -99.99 -9.99
2019/08/21 21:12 EDT    1.59   2.29    7  216   10  73.8  68.7 1012.1 29.8  1.022 -99.9 -99.99 -9.99
2019/08/21 21:18 EDT    1.64   2.35    8  217   10  73.6  68.7 1012.1 29.8  1.022 -99.9 -99.99 -9.99
2019/08/21 21:24 EDT    1.68   2.39   10  210   11  73.8  68.7 1012.0 29.8  1.022 -99.9 -99.99 -9.99
2019/08/21 21:30 EDT    1.73   2.40   11  205   13  73.6  68.7 1011.9 29.8  1.022 -99.9 -99.99 -9.99
2019/08/21 21:36 EDT    1.78   2.42   11  209   13  73.6  68.7 1011.8 29.8  1.022 -99.9 -99.99 -9.99
2019/08/21 21:42 EDT    1.83   2.50   12  211   14  73.8  68.7 1011.9 29.8  1.022 -99.9 -99.99 -9.99
2019/08/21 21:48 EDT    1.88   2.58   13  214   15  73.8  68.7 1012.0 29.7  1.022 -99.9 -99.99 -9.99
2019/08/21 21:54 EDT    1.93   2.65   16  226   17  74.7  68.7 1011.9 29.7  1.022 -99.9 -99.99 -9.99
2019/08/21 22:00 EDT    1.98   2.65   15  226   19  75.4  68.5 1011.9 29.8  1.022 -99.9 -99.99 -9.99
2019/08/21 22:06 EDT    2.04   2.69   14  230   18  75.6  68.7 1011.9 29.7  1.022 -99.9 -99.99 -9.99
2019/08/21 22:12 EDT    2.09   2.71   14  240   18  75.9  68.5 1011.8 29.8  1.022 -99.9 -99.99 -9.99
2019/08/21 22:18 EDT    2.14   2.72   13  234   20  76.1  68.5 1011.7 29.8  1.022 -99.9 -99.99 -9.99
2019/08/21 22:24 EDT    2.20   2.71   15  236   17  76.3  68.5 1011.6 29.8  1.022 -99.9 -99.99 -9.99
2019/08/21 22:30 EDT    2.25   2.69   15  238   22  76.3  68.5 1011.6 29.8  1.022 -99.9 -99.99 -9.99
2019/08/21 22:36 EDT    2.31   2.82   15  238   21  76.1  68.5 1011.6 29.8  1.022 -99.9 -99.99 -9.99
2019/08/21 22:42 EDT    2.36   2.82   17  233   21  76.3  68.5 1011.5 29.8  1.022 -99.9 -99.99 -9.99
2019/08/21 22:48 EDT    2.42   2.89   16  234   22  76.1  68.5 1011.5 29.8  1.022 -99.9 -99.99 -9.99
2019/08/21 22:54 EDT    2.47   2.97   17  232   24  75.6  68.4 1011.4 29.9  1.022 -99.9 -99.99 -9.99
2019/08/21 23:00 EDT    2.52   3.01   19  235   23  75.9  68.4 1011.4 29.8  1.022 -99.9 -99.99 -9.99
2019/08/21 23:06 EDT    2.57   3.10   16  236   21  75.7  68.4 1011.7 29.8  1.022 -99.9 -99.99 -9.99
2019/08/21 23:12 EDT    2.62   3.10   13  246   17  75.4  68.4 1011.8 29.8  1.022 -99.9 -99.99 -9.99
2019/08/21 23:18 EDT    2.67   3.20   15  247   19  75.7  68.4 1011.8 29.8  1.022 -99.9 -99.99 -9.99
2019/08/21 23:24 EDT    2.71   3.23   15  252   18  75.7  68.4 1011.8 29.8  1.022 -99.9 -99.99 -9.99
2019/08/21 23:30 EDT    2.76   3.24   13  241   16  75.4  68.4 1012.0 29.8  1.022 -99.9 -99.99 -9.99
2019/08/21 23:36 EDT    2.80   3.30   12  250   16  75.4  68.4 1012.1 29.8  1.022 -99.9 -99.99 -9.99
2019/08/21 23:42 EDT    2.84   3.22    9  243   14  75.0  68.4 1012.0 29.7  1.022 -99.9 -99.99 -9.99
2019/08/21 23:48 EDT    2.87   3.38    9  234   10  75.2  68.4 1011.9 29.8  1.022 -99.9 -99.99 -9.99
2019/08/21 23:54 EDT    2.91   3.37   10  240   12  75.2  68.4 1011.9 29.8  1.022 -99.9 -99.99 -9.99
2019/08/22 00:00 EDT    2.94   3.32    8  230   11  75.2  68.4 1011.8 29.8  1.022 -99.9 -99.99 -9.99
2019/08/22 00:06 EDT    2.96   3.42    8  220   11  75.2  68.4 1011.8 29.7  1.022 -99.9 -99.99 -9.99
2019/08/22 00:12 EDT    2.98   3.43    7  217    9  74.8  68.4 1011.8 29.8  1.022 -99.9 -99.99 -9.99
2019/08/22 00:18 EDT    3.00   3.42    7  206    8  73.9  68.4 1011.7 29.7  1.022 -99.9 -99.99 -9.99
2019/08/22 00:24 EDT    3.02   3.55    8  207    9  73.8  68.4 1011.6 29.8  1.022 -99.9 -99.99 -9.99
2019/08/22 00:30 EDT    3.03   3.46   10  207   11  73.6  68.4 1011.6 29.8  1.022 -99.9 -99.99 -9.99
2019/08/22 00:36 EDT    3.03   3.47   10  208   11  73.6  68.4 1011.6 29.8  1.022 -99.9 -99.99 -9.99
2019/08/22 00:42 EDT    3.03   3.56    9  211   11  73.4  68.4 1011.5 29.8  1.022 -99.9 -99.99 -9.99
2019/08/22 00:48 EDT    3.03   3.55    9  217   10  73.2  68.4 1011.5 29.8  1.022 -99.9 -99.99 -9.99
2019/08/22 00:54 EDT    3.02   3.55   10  221   12  72.9  68.4 1011.5 29.9  1.022 -99.9 -99.99 -9.99
2019/08/22 01:00 EDT    3.01   3.58    8  218   11  72.5  68.4 1011.5 29.9  1.022 -99.9 -99.99 -9.99
2019/08/22 01:06 EDT    2.99   3.53    8  219   11  72.3  68.4 1011.6 29.9  1.022 -99.9 -99.99 -9.99
2019/08/22 01:12 EDT    2.97   3.47    8  218   10  72.1  68.4 1011.6 29.9  1.022 -99.9 -99.99 -9.99
2019/08/22 01:18 EDT    2.95   3.57    8  217   10  72.0  68.4 1011.5 29.7  1.022 -99.9 -99.99 -9.99
2019/08/22 01:24 EDT    2.92   3.52    8  219   10  72.1  68.4 1011.6 29.7  1.022 -99.9 -99.99 -9.99
2019/08/22 01:30 EDT    2.88   3.44    8  216   10  72.1  68.4 1011.6 29.3  1.021 -99.9 -99.99 -9.99
2019/08/22 01:36 EDT    2.84   3.44   10  217   11  72.5  68.4 1011.4 29.8  1.022 -99.9 -99.99 -9.99
2019/08/22 01:42 EDT    2.80   3.42    9  221   12  72.9  68.4 1011.3 29.9  1.022 -99.9 -99.99 -9.99
2019/08/22 01:48 EDT    2.76   3.32    8  218   10  72.7  68.4 1011.3 30.0  1.022 -99.9 -99.99 -9.99
2019/08/22 01:54 EDT    2.71   3.38    8  213   10  72.5  68.5 1011.2 30.0  1.022 -99.9 -99.99 -9.99
2019/08/22 02:00 EDT    2.65   3.32    9  206   10  72.3  68.5 1011.3 30.0  1.022 -99.9 -99.99 -9.99
2019/08/22 02:06 EDT    2.60   3.24    9  210   11  72.0  68.4 1011.3 30.0  1.022 -99.9 -99.99 -9.99
2019/08/22 02:12 EDT    2.54   3.28    7  203   10  71.8  68.5 1011.3 30.0  1.022 -99.9 -99.99 -9.99
2019/08/22 02:18 EDT    2.47   3.16    7  199    8  72.0  68.5 1011.1 30.0  1.022 -99.9 -99.99 -9.99
2019/08/22 02:24 EDT    2.41   3.07    7  194    9  72.1  68.5 1011.1 30.0  1.022 -99.9 -99.99 -9.99
2019/08/22 02:30 EDT    2.34   3.01    7  183    8  72.1  68.5 1011.0 30.0  1.022 -99.9 -99.99 -9.99
2019/08/22 02:36 EDT    2.27   2.93    7  195    8  72.5  68.5 1010.9 30.0  1.022 -99.9 -99.99 -9.99
2019/08/22 02:42 EDT    2.20   2.86    7  207   10  72.9  68.5 1010.8 30.0  1.022 -99.9 -99.99 -9.99
2019/08/22 02:48 EDT    2.13   2.76    7  207    9  72.9  68.5 1010.8 29.9  1.022 -99.9 -99.99 -9.99
2019/08/22 02:54 EDT    2.05 -99.99 -999 -999 -999 -99.9 -99.9 -999.9 -9.9 -9.999 -99.9 -99.99 -9.99
2019/08/22 03:00 EDT    1.97 -99.99 -999 -999 -999 -99.9 -99.9 -999.9 -9.9 -9.999 -99.9 -99.99 -9.99
2019/08/22 03:06 EDT    1.90 -99.99 -999 -999 -999 -99.9 -99.9 -999.9 -9.9 -9.999 -99.9 -99.99 -9.99

Revised: 08/08/2018
NOAA / National Ocean Service
Web site owner: Center for Operational Oceanographic Products and Services